<?xml version="1.0" encoding="UTF-8" standalone="no" ?>
<gpx xmlns="http://www.topografix.com/GPX/1/1" xmlns:xsi="http://www.w3.org/2001/XMLSchema-instance" xsi:schemaLocation="http://www.topografix.com/GPX/1/1 http://www.topografix.com/GPX/1/1/gpx.xsd" version="1.1" creator="VisuGPX - https://www.visugpx.com">
  <metadata>
    <name>Dernier Vaudois 2017 </name>
    <desc><![CDATA[Dernier Vaudois 2017 ____________________]]></desc>
  </metadata>
  <trk>
    <name><![CDATA[dimanche 31 décembre 2017]]></name>
    <trkseg>
      <trkpt lat="47.51784" lon="6.77514">
        <ele>389</ele>
        <time>2017-12-31T08:31:38Z</time>
      </trkpt>
      <trkpt lat="47.51807" lon="6.77506">
        <ele>389</ele>
        <time>2017-12-31T08:31:43Z</time>
      </trkpt>
      <trkpt lat="47.51817" lon="6.77474">
        <ele>387</ele>
        <time>2017-12-31T08:37:55Z</time>
      </trkpt>
      <trkpt lat="47.51843" lon="6.77496">
        <ele>387</ele>
        <time>2017-12-31T08:38:02Z</time>
      </trkpt>
      <trkpt lat="47.51867" lon="6.77505">
        <ele>388</ele>
        <time>2017-12-31T08:38:08Z</time>
      </trkpt>
      <trkpt lat="47.51888" lon="6.77513">
        <ele>388</ele>
        <time>2017-12-31T08:38:13Z</time>
      </trkpt>
      <trkpt lat="47.51908" lon="6.77519">
        <ele>388</ele>
        <time>2017-12-31T08:38:18Z</time>
      </trkpt>
      <trkpt lat="47.51928" lon="6.77522">
        <ele>389</ele>
        <time>2017-12-31T08:38:23Z</time>
      </trkpt>
      <trkpt lat="47.51947" lon="6.77527">
        <ele>390</ele>
        <time>2017-12-31T08:38:28Z</time>
      </trkpt>
      <trkpt lat="47.51969" lon="6.7753">
        <ele>390</ele>
        <time>2017-12-31T08:38:33Z</time>
      </trkpt>
      <trkpt lat="47.51981" lon="6.77534">
        <ele>390</ele>
        <time>2017-12-31T08:38:38Z</time>
      </trkpt>
      <trkpt lat="47.52001" lon="6.7754">
        <ele>390</ele>
        <time>2017-12-31T08:38:43Z</time>
      </trkpt>
      <trkpt lat="47.52028" lon="6.7754">
        <ele>390</ele>
        <time>2017-12-31T08:38:48Z</time>
      </trkpt>
      <trkpt lat="47.52044" lon="6.77544">
        <ele>391</ele>
        <time>2017-12-31T08:38:53Z</time>
      </trkpt>
      <trkpt lat="47.52062" lon="6.77548">
        <ele>391</ele>
        <time>2017-12-31T08:38:58Z</time>
      </trkpt>
      <trkpt lat="47.52081" lon="6.7756">
        <ele>391</ele>
        <time>2017-12-31T08:39:03Z</time>
      </trkpt>
      <trkpt lat="47.52093" lon="6.7759">
        <ele>391</ele>
        <time>2017-12-31T08:39:08Z</time>
      </trkpt>
      <trkpt lat="47.52095" lon="6.77623">
        <ele>391</ele>
        <time>2017-12-31T08:39:13Z</time>
      </trkpt>
      <trkpt lat="47.52094" lon="6.77652">
        <ele>392</ele>
        <time>2017-12-31T08:39:18Z</time>
      </trkpt>
      <trkpt lat="47.52095" lon="6.77672">
        <ele>392</ele>
        <time>2017-12-31T08:39:23Z</time>
      </trkpt>
      <trkpt lat="47.52115" lon="6.77671">
        <ele>391</ele>
        <time>2017-12-31T08:39:28Z</time>
      </trkpt>
      <trkpt lat="47.52145" lon="6.77658">
        <ele>390</ele>
        <time>2017-12-31T08:39:33Z</time>
      </trkpt>
      <trkpt lat="47.52177" lon="6.77634">
        <ele>387</ele>
        <time>2017-12-31T08:39:38Z</time>
      </trkpt>
      <trkpt lat="47.52208" lon="6.77609">
        <ele>387</ele>
        <time>2017-12-31T08:39:43Z</time>
      </trkpt>
      <trkpt lat="47.52236" lon="6.77591">
        <ele>386</ele>
        <time>2017-12-31T08:39:48Z</time>
      </trkpt>
      <trkpt lat="47.52261" lon="6.77574">
        <ele>387</ele>
        <time>2017-12-31T08:39:53Z</time>
      </trkpt>
      <trkpt lat="47.52284" lon="6.77558">
        <ele>387</ele>
        <time>2017-12-31T08:39:58Z</time>
      </trkpt>
      <trkpt lat="47.52307" lon="6.7754">
        <ele>387</ele>
        <time>2017-12-31T08:40:03Z</time>
      </trkpt>
      <trkpt lat="47.52329" lon="6.77523">
        <ele>388</ele>
        <time>2017-12-31T08:40:08Z</time>
      </trkpt>
      <trkpt lat="47.5235" lon="6.77507">
        <ele>389</ele>
        <time>2017-12-31T08:40:13Z</time>
      </trkpt>
      <trkpt lat="47.52371" lon="6.77496">
        <ele>391</ele>
        <time>2017-12-31T08:40:18Z</time>
      </trkpt>
      <trkpt lat="47.52394" lon="6.77483">
        <ele>391</ele>
        <time>2017-12-31T08:40:23Z</time>
      </trkpt>
      <trkpt lat="47.52415" lon="6.77467">
        <ele>391</ele>
        <time>2017-12-31T08:40:28Z</time>
      </trkpt>
      <trkpt lat="47.5244" lon="6.7747">
        <ele>393</ele>
        <time>2017-12-31T08:40:33Z</time>
      </trkpt>
      <trkpt lat="47.5246" lon="6.77476">
        <ele>393</ele>
        <time>2017-12-31T08:40:38Z</time>
      </trkpt>
      <trkpt lat="47.52472" lon="6.7748">
        <ele>393</ele>
        <time>2017-12-31T08:40:43Z</time>
      </trkpt>
      <trkpt lat="47.52487" lon="6.7748">
        <ele>393</ele>
        <time>2017-12-31T08:40:48Z</time>
      </trkpt>
      <trkpt lat="47.525" lon="6.77483">
        <ele>394</ele>
        <time>2017-12-31T08:40:53Z</time>
      </trkpt>
      <trkpt lat="47.52513" lon="6.77485">
        <ele>394</ele>
        <time>2017-12-31T08:40:58Z</time>
      </trkpt>
      <trkpt lat="47.52528" lon="6.7748">
        <ele>394</ele>
        <time>2017-12-31T08:41:03Z</time>
      </trkpt>
      <trkpt lat="47.52544" lon="6.77481">
        <ele>394</ele>
        <time>2017-12-31T08:41:08Z</time>
      </trkpt>
      <trkpt lat="47.52561" lon="6.77484">
        <ele>395</ele>
        <time>2017-12-31T08:41:13Z</time>
      </trkpt>
      <trkpt lat="47.52577" lon="6.7749">
        <ele>396</ele>
        <time>2017-12-31T08:41:18Z</time>
      </trkpt>
      <trkpt lat="47.52589" lon="6.77494">
        <ele>397</ele>
        <time>2017-12-31T08:41:23Z</time>
      </trkpt>
      <trkpt lat="47.52603" lon="6.77501">
        <ele>397</ele>
        <time>2017-12-31T08:41:30Z</time>
      </trkpt>
      <trkpt lat="47.52613" lon="6.77488">
        <ele>397</ele>
        <time>2017-12-31T08:41:35Z</time>
      </trkpt>
      <trkpt lat="47.52625" lon="6.7747">
        <ele>397</ele>
        <time>2017-12-31T08:41:40Z</time>
      </trkpt>
      <trkpt lat="47.52642" lon="6.77459">
        <ele>398</ele>
        <time>2017-12-31T08:41:45Z</time>
      </trkpt>
      <trkpt lat="47.52655" lon="6.77454">
        <ele>398</ele>
        <time>2017-12-31T08:41:50Z</time>
      </trkpt>
      <trkpt lat="47.52668" lon="6.77455">
        <ele>400</ele>
        <time>2017-12-31T08:41:55Z</time>
      </trkpt>
      <trkpt lat="47.5268" lon="6.77459">
        <ele>400</ele>
        <time>2017-12-31T08:42:00Z</time>
      </trkpt>
      <trkpt lat="47.52692" lon="6.77465">
        <ele>400</ele>
        <time>2017-12-31T08:42:05Z</time>
      </trkpt>
      <trkpt lat="47.52701" lon="6.77472">
        <ele>400</ele>
        <time>2017-12-31T08:42:10Z</time>
      </trkpt>
      <trkpt lat="47.52712" lon="6.77481">
        <ele>400</ele>
        <time>2017-12-31T08:42:15Z</time>
      </trkpt>
      <trkpt lat="47.52724" lon="6.77494">
        <ele>400</ele>
        <time>2017-12-31T08:42:20Z</time>
      </trkpt>
      <trkpt lat="47.52737" lon="6.77503">
        <ele>399</ele>
        <time>2017-12-31T08:42:25Z</time>
      </trkpt>
      <trkpt lat="47.52749" lon="6.77511">
        <ele>400</ele>
        <time>2017-12-31T08:42:30Z</time>
      </trkpt>
      <trkpt lat="47.52761" lon="6.77524">
        <ele>400</ele>
        <time>2017-12-31T08:42:35Z</time>
      </trkpt>
      <trkpt lat="47.52778" lon="6.77534">
        <ele>400</ele>
        <time>2017-12-31T08:42:40Z</time>
      </trkpt>
      <trkpt lat="47.52796" lon="6.77543">
        <ele>400</ele>
        <time>2017-12-31T08:42:45Z</time>
      </trkpt>
      <trkpt lat="47.52812" lon="6.77555">
        <ele>400</ele>
        <time>2017-12-31T08:42:50Z</time>
      </trkpt>
      <trkpt lat="47.52831" lon="6.77562">
        <ele>400</ele>
        <time>2017-12-31T08:42:55Z</time>
      </trkpt>
      <trkpt lat="47.52849" lon="6.77568">
        <ele>401</ele>
        <time>2017-12-31T08:43:00Z</time>
      </trkpt>
      <trkpt lat="47.52872" lon="6.77575">
        <ele>401</ele>
        <time>2017-12-31T08:43:05Z</time>
      </trkpt>
      <trkpt lat="47.5289" lon="6.77573">
        <ele>402</ele>
        <time>2017-12-31T08:43:10Z</time>
      </trkpt>
      <trkpt lat="47.52908" lon="6.77574">
        <ele>402</ele>
        <time>2017-12-31T08:43:15Z</time>
      </trkpt>
      <trkpt lat="47.52926" lon="6.77571">
        <ele>403</ele>
        <time>2017-12-31T08:43:20Z</time>
      </trkpt>
      <trkpt lat="47.52945" lon="6.77578">
        <ele>403</ele>
        <time>2017-12-31T08:43:25Z</time>
      </trkpt>
      <trkpt lat="47.5296" lon="6.77583">
        <ele>402</ele>
        <time>2017-12-31T08:43:30Z</time>
      </trkpt>
      <trkpt lat="47.52975" lon="6.77587">
        <ele>403</ele>
        <time>2017-12-31T08:43:35Z</time>
      </trkpt>
      <trkpt lat="47.52992" lon="6.77594">
        <ele>404</ele>
        <time>2017-12-31T08:43:40Z</time>
      </trkpt>
      <trkpt lat="47.53011" lon="6.776">
        <ele>404</ele>
        <time>2017-12-31T08:43:45Z</time>
      </trkpt>
      <trkpt lat="47.53034" lon="6.77601">
        <ele>404</ele>
        <time>2017-12-31T08:43:50Z</time>
      </trkpt>
      <trkpt lat="47.53054" lon="6.77607">
        <ele>404</ele>
        <time>2017-12-31T08:43:56Z</time>
      </trkpt>
      <trkpt lat="47.53079" lon="6.77607">
        <ele>404</ele>
        <time>2017-12-31T08:44:01Z</time>
      </trkpt>
      <trkpt lat="47.53093" lon="6.7762">
        <ele>405</ele>
        <time>2017-12-31T08:44:06Z</time>
      </trkpt>
      <trkpt lat="47.53101" lon="6.77625">
        <ele>405</ele>
        <time>2017-12-31T08:44:11Z</time>
      </trkpt>
      <trkpt lat="47.53118" lon="6.77665">
        <ele>405</ele>
        <time>2017-12-31T08:44:32Z</time>
      </trkpt>
      <trkpt lat="47.53122" lon="6.7769">
        <ele>404</ele>
        <time>2017-12-31T08:44:37Z</time>
      </trkpt>
      <trkpt lat="47.5313" lon="6.77744">
        <ele>404</ele>
        <time>2017-12-31T08:45:03Z</time>
      </trkpt>
      <trkpt lat="47.53128" lon="6.77714">
        <ele>404</ele>
        <time>2017-12-31T08:45:17Z</time>
      </trkpt>
      <trkpt lat="47.5313" lon="6.777">
        <ele>404</ele>
        <time>2017-12-31T08:45:22Z</time>
      </trkpt>
      <trkpt lat="47.53138" lon="6.77695">
        <ele>404</ele>
        <time>2017-12-31T08:45:27Z</time>
      </trkpt>
      <trkpt lat="47.5315" lon="6.7769">
        <ele>405</ele>
        <time>2017-12-31T08:45:32Z</time>
      </trkpt>
      <trkpt lat="47.53158" lon="6.77688">
        <ele>405</ele>
        <time>2017-12-31T08:45:37Z</time>
      </trkpt>
      <trkpt lat="47.53164" lon="6.77689">
        <ele>405</ele>
        <time>2017-12-31T08:45:42Z</time>
      </trkpt>
      <trkpt lat="47.53138" lon="6.77679">
        <ele>405</ele>
        <time>2017-12-31T08:45:57Z</time>
      </trkpt>
      <trkpt lat="47.53128" lon="6.77673">
        <ele>404</ele>
        <time>2017-12-31T08:46:02Z</time>
      </trkpt>
      <trkpt lat="47.53125" lon="6.77658">
        <ele>405</ele>
        <time>2017-12-31T08:46:07Z</time>
      </trkpt>
      <trkpt lat="47.5312" lon="6.77641">
        <ele>405</ele>
        <time>2017-12-31T08:46:12Z</time>
      </trkpt>
      <trkpt lat="47.53118" lon="6.77635">
        <ele>405</ele>
        <time>2017-12-31T08:46:17Z</time>
      </trkpt>
      <trkpt lat="47.53146" lon="6.77588">
        <ele>404</ele>
        <time>2017-12-31T08:46:40Z</time>
      </trkpt>
      <trkpt lat="47.53169" lon="6.77564">
        <ele>399</ele>
        <time>2017-12-31T08:46:45Z</time>
      </trkpt>
      <trkpt lat="47.53197" lon="6.77539">
        <ele>396</ele>
        <time>2017-12-31T08:46:50Z</time>
      </trkpt>
      <trkpt lat="47.53236" lon="6.77454">
        <ele>389</ele>
        <time>2017-12-31T08:46:59Z</time>
      </trkpt>
      <trkpt lat="47.53257" lon="6.77413">
        <ele>385</ele>
        <time>2017-12-31T08:47:04Z</time>
      </trkpt>
      <trkpt lat="47.5328" lon="6.77384">
        <ele>380</ele>
        <time>2017-12-31T08:47:09Z</time>
      </trkpt>
      <trkpt lat="47.53301" lon="6.77345">
        <ele>377</ele>
        <time>2017-12-31T08:47:14Z</time>
      </trkpt>
      <trkpt lat="47.53325" lon="6.77325">
        <ele>371</ele>
        <time>2017-12-31T08:47:19Z</time>
      </trkpt>
      <trkpt lat="47.53349" lon="6.77292">
        <ele>367</ele>
        <time>2017-12-31T08:47:24Z</time>
      </trkpt>
      <trkpt lat="47.53365" lon="6.77263">
        <ele>366</ele>
        <time>2017-12-31T08:47:29Z</time>
      </trkpt>
      <trkpt lat="47.53375" lon="6.77245">
        <ele>365</ele>
        <time>2017-12-31T08:47:34Z</time>
      </trkpt>
      <trkpt lat="47.53389" lon="6.77233">
        <ele>365</ele>
        <time>2017-12-31T08:47:39Z</time>
      </trkpt>
      <trkpt lat="47.53404" lon="6.77226">
        <ele>365</ele>
        <time>2017-12-31T08:47:47Z</time>
      </trkpt>
      <trkpt lat="47.53417" lon="6.77229">
        <ele>367</ele>
        <time>2017-12-31T08:47:53Z</time>
      </trkpt>
      <trkpt lat="47.53426" lon="6.77232">
        <ele>367</ele>
        <time>2017-12-31T08:47:58Z</time>
      </trkpt>
      <trkpt lat="47.53435" lon="6.77235">
        <ele>367</ele>
        <time>2017-12-31T08:48:03Z</time>
      </trkpt>
      <trkpt lat="47.53442" lon="6.7724">
        <ele>368</ele>
        <time>2017-12-31T08:48:08Z</time>
      </trkpt>
      <trkpt lat="47.53451" lon="6.77244">
        <ele>368</ele>
        <time>2017-12-31T08:48:13Z</time>
      </trkpt>
      <trkpt lat="47.53457" lon="6.77246">
        <ele>368</ele>
        <time>2017-12-31T08:48:18Z</time>
      </trkpt>
      <trkpt lat="47.53517" lon="6.77322">
        <ele>373</ele>
        <time>2017-12-31T08:49:13Z</time>
      </trkpt>
      <trkpt lat="47.53522" lon="6.77332">
        <ele>374</ele>
        <time>2017-12-31T08:49:18Z</time>
      </trkpt>
      <trkpt lat="47.53531" lon="6.77349">
        <ele>373</ele>
        <time>2017-12-31T08:49:24Z</time>
      </trkpt>
      <trkpt lat="47.53539" lon="6.77361">
        <ele>373</ele>
        <time>2017-12-31T08:49:29Z</time>
      </trkpt>
      <trkpt lat="47.53549" lon="6.77379">
        <ele>373</ele>
        <time>2017-12-31T08:49:34Z</time>
      </trkpt>
      <trkpt lat="47.5356" lon="6.77391">
        <ele>374</ele>
        <time>2017-12-31T08:49:39Z</time>
      </trkpt>
      <trkpt lat="47.53571" lon="6.77401">
        <ele>374</ele>
        <time>2017-12-31T08:49:44Z</time>
      </trkpt>
      <trkpt lat="47.53582" lon="6.77418">
        <ele>375</ele>
        <time>2017-12-31T08:49:49Z</time>
      </trkpt>
      <trkpt lat="47.53597" lon="6.77432">
        <ele>376</ele>
        <time>2017-12-31T08:49:54Z</time>
      </trkpt>
      <trkpt lat="47.53609" lon="6.77446">
        <ele>376</ele>
        <time>2017-12-31T08:49:59Z</time>
      </trkpt>
      <trkpt lat="47.53626" lon="6.77466">
        <ele>376</ele>
        <time>2017-12-31T08:50:04Z</time>
      </trkpt>
      <trkpt lat="47.53639" lon="6.77484">
        <ele>377</ele>
        <time>2017-12-31T08:50:09Z</time>
      </trkpt>
      <trkpt lat="47.53651" lon="6.77505">
        <ele>374</ele>
        <time>2017-12-31T08:50:14Z</time>
      </trkpt>
      <trkpt lat="47.53664" lon="6.77526">
        <ele>373</ele>
        <time>2017-12-31T08:50:19Z</time>
      </trkpt>
      <trkpt lat="47.53678" lon="6.77552">
        <ele>376</ele>
        <time>2017-12-31T08:50:24Z</time>
      </trkpt>
      <trkpt lat="47.53696" lon="6.7758">
        <ele>375</ele>
        <time>2017-12-31T08:50:29Z</time>
      </trkpt>
      <trkpt lat="47.5371" lon="6.77603">
        <ele>369</ele>
        <time>2017-12-31T08:50:34Z</time>
      </trkpt>
      <trkpt lat="47.5372" lon="6.77627">
        <ele>368</ele>
        <time>2017-12-31T08:50:39Z</time>
      </trkpt>
      <trkpt lat="47.53736" lon="6.77668">
        <ele>363</ele>
        <time>2017-12-31T08:50:48Z</time>
      </trkpt>
      <trkpt lat="47.53747" lon="6.77696">
        <ele>361</ele>
        <time>2017-12-31T08:50:53Z</time>
      </trkpt>
      <trkpt lat="47.53761" lon="6.77715">
        <ele>359</ele>
        <time>2017-12-31T08:50:58Z</time>
      </trkpt>
      <trkpt lat="47.53775" lon="6.77719">
        <ele>359</ele>
        <time>2017-12-31T08:51:03Z</time>
      </trkpt>
      <trkpt lat="47.53796" lon="6.77714">
        <ele>358</ele>
        <time>2017-12-31T08:51:08Z</time>
      </trkpt>
      <trkpt lat="47.53822" lon="6.77697">
        <ele>359</ele>
        <time>2017-12-31T08:51:13Z</time>
      </trkpt>
      <trkpt lat="47.53836" lon="6.77688">
        <ele>357</ele>
        <time>2017-12-31T08:51:18Z</time>
      </trkpt>
      <trkpt lat="47.5385" lon="6.77679">
        <ele>357</ele>
        <time>2017-12-31T08:51:23Z</time>
      </trkpt>
      <trkpt lat="47.53865" lon="6.77662">
        <ele>363</ele>
        <time>2017-12-31T08:51:29Z</time>
      </trkpt>
      <trkpt lat="47.53879" lon="6.7765">
        <ele>363</ele>
        <time>2017-12-31T08:51:34Z</time>
      </trkpt>
      <trkpt lat="47.53889" lon="6.77645">
        <ele>362</ele>
        <time>2017-12-31T08:51:39Z</time>
      </trkpt>
      <trkpt lat="47.53903" lon="6.77636">
        <ele>362</ele>
        <time>2017-12-31T08:51:44Z</time>
      </trkpt>
      <trkpt lat="47.53916" lon="6.77625">
        <ele>362</ele>
        <time>2017-12-31T08:51:49Z</time>
      </trkpt>
      <trkpt lat="47.53927" lon="6.77612">
        <ele>358</ele>
        <time>2017-12-31T08:51:54Z</time>
      </trkpt>
      <trkpt lat="47.53938" lon="6.776">
        <ele>359</ele>
        <time>2017-12-31T08:51:59Z</time>
      </trkpt>
      <trkpt lat="47.53949" lon="6.77592">
        <ele>358</ele>
        <time>2017-12-31T08:52:04Z</time>
      </trkpt>
      <trkpt lat="47.53958" lon="6.77584">
        <ele>358</ele>
        <time>2017-12-31T08:52:09Z</time>
      </trkpt>
      <trkpt lat="47.53969" lon="6.77579">
        <ele>365</ele>
        <time>2017-12-31T08:52:14Z</time>
      </trkpt>
      <trkpt lat="47.53977" lon="6.77575">
        <ele>364</ele>
        <time>2017-12-31T08:52:19Z</time>
      </trkpt>
      <trkpt lat="47.53989" lon="6.77564">
        <ele>364</ele>
        <time>2017-12-31T08:52:24Z</time>
      </trkpt>
      <trkpt lat="47.54003" lon="6.77552">
        <ele>362</ele>
        <time>2017-12-31T08:52:29Z</time>
      </trkpt>
      <trkpt lat="47.54015" lon="6.77539">
        <ele>363</ele>
        <time>2017-12-31T08:52:34Z</time>
      </trkpt>
      <trkpt lat="47.54028" lon="6.77527">
        <ele>363</ele>
        <time>2017-12-31T08:52:39Z</time>
      </trkpt>
      <trkpt lat="47.54041" lon="6.77519">
        <ele>363</ele>
        <time>2017-12-31T08:52:44Z</time>
      </trkpt>
      <trkpt lat="47.5406" lon="6.77511">
        <ele>362</ele>
        <time>2017-12-31T08:52:49Z</time>
      </trkpt>
      <trkpt lat="47.54083" lon="6.77508">
        <ele>362</ele>
        <time>2017-12-31T08:52:54Z</time>
      </trkpt>
      <trkpt lat="47.54105" lon="6.77504">
        <ele>359</ele>
        <time>2017-12-31T08:52:59Z</time>
      </trkpt>
      <trkpt lat="47.54128" lon="6.77504">
        <ele>358</ele>
        <time>2017-12-31T08:53:04Z</time>
      </trkpt>
      <trkpt lat="47.54147" lon="6.77498">
        <ele>364</ele>
        <time>2017-12-31T08:53:09Z</time>
      </trkpt>
      <trkpt lat="47.54173" lon="6.77494">
        <ele>360</ele>
        <time>2017-12-31T08:53:14Z</time>
      </trkpt>
      <trkpt lat="47.54197" lon="6.77491">
        <ele>361</ele>
        <time>2017-12-31T08:53:19Z</time>
      </trkpt>
      <trkpt lat="47.54217" lon="6.77482">
        <ele>362</ele>
        <time>2017-12-31T08:53:24Z</time>
      </trkpt>
      <trkpt lat="47.54232" lon="6.77467">
        <ele>362</ele>
        <time>2017-12-31T08:53:29Z</time>
      </trkpt>
      <trkpt lat="47.54242" lon="6.77459">
        <ele>362</ele>
        <time>2017-12-31T08:53:34Z</time>
      </trkpt>
      <trkpt lat="47.54247" lon="6.77444">
        <ele>363</ele>
        <time>2017-12-31T08:53:39Z</time>
      </trkpt>
      <trkpt lat="47.54244" lon="6.77431">
        <ele>363</ele>
        <time>2017-12-31T08:53:44Z</time>
      </trkpt>
      <trkpt lat="47.5424" lon="6.77421">
        <ele>363</ele>
        <time>2017-12-31T08:53:49Z</time>
      </trkpt>
      <trkpt lat="47.54234" lon="6.7741">
        <ele>366</ele>
        <time>2017-12-31T08:53:54Z</time>
      </trkpt>
      <trkpt lat="47.54232" lon="6.77398">
        <ele>367</ele>
        <time>2017-12-31T08:53:59Z</time>
      </trkpt>
      <trkpt lat="47.5423" lon="6.77384">
        <ele>368</ele>
        <time>2017-12-31T08:54:04Z</time>
      </trkpt>
      <trkpt lat="47.54227" lon="6.77374">
        <ele>368</ele>
        <time>2017-12-31T08:54:09Z</time>
      </trkpt>
      <trkpt lat="47.54226" lon="6.77364">
        <ele>368</ele>
        <time>2017-12-31T08:54:14Z</time>
      </trkpt>
      <trkpt lat="47.54222" lon="6.77345">
        <ele>368</ele>
        <time>2017-12-31T08:54:19Z</time>
      </trkpt>
      <trkpt lat="47.54217" lon="6.77327">
        <ele>370</ele>
        <time>2017-12-31T08:54:23Z</time>
      </trkpt>
      <trkpt lat="47.54213" lon="6.7731">
        <ele>371</ele>
        <time>2017-12-31T08:54:29Z</time>
      </trkpt>
      <trkpt lat="47.54211" lon="6.7729">
        <ele>371</ele>
        <time>2017-12-31T08:54:34Z</time>
      </trkpt>
      <trkpt lat="47.54212" lon="6.77274">
        <ele>371</ele>
        <time>2017-12-31T08:54:39Z</time>
      </trkpt>
      <trkpt lat="47.54211" lon="6.77258">
        <ele>371</ele>
        <time>2017-12-31T08:54:44Z</time>
      </trkpt>
      <trkpt lat="47.54209" lon="6.77246">
        <ele>372</ele>
        <time>2017-12-31T08:54:49Z</time>
      </trkpt>
      <trkpt lat="47.54205" lon="6.77231">
        <ele>373</ele>
        <time>2017-12-31T08:54:54Z</time>
      </trkpt>
      <trkpt lat="47.54203" lon="6.7722">
        <ele>373</ele>
        <time>2017-12-31T08:54:59Z</time>
      </trkpt>
      <trkpt lat="47.54199" lon="6.77206">
        <ele>374</ele>
        <time>2017-12-31T08:55:05Z</time>
      </trkpt>
      <trkpt lat="47.54195" lon="6.77191">
        <ele>375</ele>
        <time>2017-12-31T08:55:13Z</time>
      </trkpt>
      <trkpt lat="47.54195" lon="6.77182">
        <ele>375</ele>
        <time>2017-12-31T08:55:18Z</time>
      </trkpt>
      <trkpt lat="47.54188" lon="6.77089">
        <ele>378</ele>
        <time>2017-12-31T08:58:47Z</time>
      </trkpt>
      <trkpt lat="47.54177" lon="6.77034">
        <ele>379</ele>
        <time>2017-12-31T08:59:32Z</time>
      </trkpt>
      <trkpt lat="47.54198" lon="6.77011">
        <ele>379</ele>
        <time>2017-12-31T08:59:48Z</time>
      </trkpt>
      <trkpt lat="47.54209" lon="6.77007">
        <ele>378</ele>
        <time>2017-12-31T08:59:53Z</time>
      </trkpt>
      <trkpt lat="47.54235" lon="6.77023">
        <ele>376</ele>
        <time>2017-12-31T08:59:58Z</time>
      </trkpt>
      <trkpt lat="47.54274" lon="6.77036">
        <ele>368</ele>
        <time>2017-12-31T09:00:04Z</time>
      </trkpt>
      <trkpt lat="47.54316" lon="6.77033">
        <ele>367</ele>
        <time>2017-12-31T09:00:09Z</time>
      </trkpt>
      <trkpt lat="47.54339" lon="6.7703">
        <ele>364</ele>
        <time>2017-12-31T09:00:14Z</time>
      </trkpt>
      <trkpt lat="47.54368" lon="6.77019">
        <ele>363</ele>
        <time>2017-12-31T09:00:22Z</time>
      </trkpt>
      <trkpt lat="47.54382" lon="6.77006">
        <ele>363</ele>
        <time>2017-12-31T09:00:27Z</time>
      </trkpt>
      <trkpt lat="47.54393" lon="6.7699">
        <ele>372</ele>
        <time>2017-12-31T09:00:32Z</time>
      </trkpt>
      <trkpt lat="47.54408" lon="6.76977">
        <ele>372</ele>
        <time>2017-12-31T09:00:37Z</time>
      </trkpt>
      <trkpt lat="47.54421" lon="6.76966">
        <ele>367</ele>
        <time>2017-12-31T09:00:42Z</time>
      </trkpt>
      <trkpt lat="47.54437" lon="6.76956">
        <ele>367</ele>
        <time>2017-12-31T09:00:47Z</time>
      </trkpt>
      <trkpt lat="47.54451" lon="6.76939">
        <ele>368</ele>
        <time>2017-12-31T09:00:52Z</time>
      </trkpt>
      <trkpt lat="47.54466" lon="6.76931">
        <ele>367</ele>
        <time>2017-12-31T09:00:57Z</time>
      </trkpt>
      <trkpt lat="47.54479" lon="6.76923">
        <ele>366</ele>
        <time>2017-12-31T09:01:02Z</time>
      </trkpt>
      <trkpt lat="47.54495" lon="6.7691">
        <ele>369</ele>
        <time>2017-12-31T09:01:07Z</time>
      </trkpt>
      <trkpt lat="47.5451" lon="6.76899">
        <ele>365</ele>
        <time>2017-12-31T09:01:12Z</time>
      </trkpt>
      <trkpt lat="47.54527" lon="6.76885">
        <ele>366</ele>
        <time>2017-12-31T09:01:17Z</time>
      </trkpt>
      <trkpt lat="47.54539" lon="6.7687">
        <ele>366</ele>
        <time>2017-12-31T09:01:22Z</time>
      </trkpt>
      <trkpt lat="47.54553" lon="6.76861">
        <ele>366</ele>
        <time>2017-12-31T09:01:27Z</time>
      </trkpt>
      <trkpt lat="47.54566" lon="6.76854">
        <ele>365</ele>
        <time>2017-12-31T09:01:32Z</time>
      </trkpt>
      <trkpt lat="47.54577" lon="6.76848">
        <ele>365</ele>
        <time>2017-12-31T09:01:37Z</time>
      </trkpt>
      <trkpt lat="47.54588" lon="6.76836">
        <ele>363</ele>
        <time>2017-12-31T09:01:42Z</time>
      </trkpt>
      <trkpt lat="47.54595" lon="6.76823">
        <ele>365</ele>
        <time>2017-12-31T09:01:47Z</time>
      </trkpt>
      <trkpt lat="47.54598" lon="6.76811">
        <ele>365</ele>
        <time>2017-12-31T09:01:52Z</time>
      </trkpt>
      <trkpt lat="47.54597" lon="6.76799">
        <ele>365</ele>
        <time>2017-12-31T09:01:57Z</time>
      </trkpt>
      <trkpt lat="47.54595" lon="6.76784">
        <ele>366</ele>
        <time>2017-12-31T09:02:02Z</time>
      </trkpt>
      <trkpt lat="47.54594" lon="6.76768">
        <ele>367</ele>
        <time>2017-12-31T09:02:07Z</time>
      </trkpt>
      <trkpt lat="47.54591" lon="6.76754">
        <ele>368</ele>
        <time>2017-12-31T09:02:12Z</time>
      </trkpt>
      <trkpt lat="47.54588" lon="6.76742">
        <ele>369</ele>
        <time>2017-12-31T09:02:17Z</time>
      </trkpt>
      <trkpt lat="47.54585" lon="6.76732">
        <ele>369</ele>
        <time>2017-12-31T09:02:22Z</time>
      </trkpt>
      <trkpt lat="47.54587" lon="6.76717">
        <ele>368</ele>
        <time>2017-12-31T09:02:27Z</time>
      </trkpt>
      <trkpt lat="47.54595" lon="6.76708">
        <ele>368</ele>
        <time>2017-12-31T09:02:32Z</time>
      </trkpt>
      <trkpt lat="47.5461" lon="6.76712">
        <ele>368</ele>
        <time>2017-12-31T09:02:37Z</time>
      </trkpt>
      <trkpt lat="47.54629" lon="6.76717">
        <ele>368</ele>
        <time>2017-12-31T09:02:42Z</time>
      </trkpt>
      <trkpt lat="47.54649" lon="6.76725">
        <ele>367</ele>
        <time>2017-12-31T09:02:48Z</time>
      </trkpt>
      <trkpt lat="47.5467" lon="6.76734">
        <ele>365</ele>
        <time>2017-12-31T09:02:53Z</time>
      </trkpt>
      <trkpt lat="47.54687" lon="6.76737">
        <ele>366</ele>
        <time>2017-12-31T09:02:58Z</time>
      </trkpt>
      <trkpt lat="47.54708" lon="6.76741">
        <ele>366</ele>
        <time>2017-12-31T09:03:03Z</time>
      </trkpt>
      <trkpt lat="47.54731" lon="6.76738">
        <ele>366</ele>
        <time>2017-12-31T09:03:08Z</time>
      </trkpt>
      <trkpt lat="47.54754" lon="6.76733">
        <ele>364</ele>
        <time>2017-12-31T09:03:13Z</time>
      </trkpt>
      <trkpt lat="47.54786" lon="6.76729">
        <ele>363</ele>
        <time>2017-12-31T09:03:18Z</time>
      </trkpt>
      <trkpt lat="47.54832" lon="6.76705">
        <ele>361</ele>
        <time>2017-12-31T09:03:26Z</time>
      </trkpt>
      <trkpt lat="47.54856" lon="6.7666">
        <ele>359</ele>
        <time>2017-12-31T09:03:32Z</time>
      </trkpt>
      <trkpt lat="47.54894" lon="6.7664">
        <ele>358</ele>
        <time>2017-12-31T09:03:37Z</time>
      </trkpt>
      <trkpt lat="47.54931" lon="6.76625">
        <ele>355</ele>
        <time>2017-12-31T09:03:42Z</time>
      </trkpt>
      <trkpt lat="47.54966" lon="6.76639">
        <ele>355</ele>
        <time>2017-12-31T09:03:48Z</time>
      </trkpt>
      <trkpt lat="47.54974" lon="6.76653">
        <ele>355</ele>
        <time>2017-12-31T09:03:53Z</time>
      </trkpt>
      <trkpt lat="47.5499" lon="6.76649">
        <ele>355</ele>
        <time>2017-12-31T09:03:59Z</time>
      </trkpt>
      <trkpt lat="47.55006" lon="6.76647">
        <ele>358</ele>
        <time>2017-12-31T09:04:04Z</time>
      </trkpt>
      <trkpt lat="47.55019" lon="6.76644">
        <ele>359</ele>
        <time>2017-12-31T09:04:09Z</time>
      </trkpt>
      <trkpt lat="47.55028" lon="6.76655">
        <ele>359</ele>
        <time>2017-12-31T09:04:14Z</time>
      </trkpt>
      <trkpt lat="47.55033" lon="6.76675">
        <ele>358</ele>
        <time>2017-12-31T09:04:19Z</time>
      </trkpt>
      <trkpt lat="47.55038" lon="6.76693">
        <ele>358</ele>
        <time>2017-12-31T09:04:24Z</time>
      </trkpt>
      <trkpt lat="47.55041" lon="6.76717">
        <ele>358</ele>
        <time>2017-12-31T09:04:29Z</time>
      </trkpt>
      <trkpt lat="47.55042" lon="6.76756">
        <ele>358</ele>
        <time>2017-12-31T09:04:38Z</time>
      </trkpt>
      <trkpt lat="47.55045" lon="6.76793">
        <ele>358</ele>
        <time>2017-12-31T09:04:48Z</time>
      </trkpt>
      <trkpt lat="47.55053" lon="6.76811">
        <ele>358</ele>
        <time>2017-12-31T09:04:53Z</time>
      </trkpt>
      <trkpt lat="47.55065" lon="6.76824">
        <ele>360</ele>
        <time>2017-12-31T09:04:58Z</time>
      </trkpt>
      <trkpt lat="47.55076" lon="6.76837">
        <ele>361</ele>
        <time>2017-12-31T09:05:03Z</time>
      </trkpt>
      <trkpt lat="47.55087" lon="6.76848">
        <ele>363</ele>
        <time>2017-12-31T09:05:08Z</time>
      </trkpt>
      <trkpt lat="47.55101" lon="6.76857">
        <ele>363</ele>
        <time>2017-12-31T09:05:13Z</time>
      </trkpt>
      <trkpt lat="47.55116" lon="6.76865">
        <ele>364</ele>
        <time>2017-12-31T09:05:19Z</time>
      </trkpt>
      <trkpt lat="47.55131" lon="6.7687">
        <ele>364</ele>
        <time>2017-12-31T09:05:24Z</time>
      </trkpt>
      <trkpt lat="47.55148" lon="6.76877">
        <ele>364</ele>
        <time>2017-12-31T09:05:29Z</time>
      </trkpt>
      <trkpt lat="47.55167" lon="6.76884">
        <ele>365</ele>
        <time>2017-12-31T09:05:34Z</time>
      </trkpt>
      <trkpt lat="47.55189" lon="6.76891">
        <ele>365</ele>
        <time>2017-12-31T09:05:39Z</time>
      </trkpt>
      <trkpt lat="47.55206" lon="6.76898">
        <ele>365</ele>
        <time>2017-12-31T09:05:44Z</time>
      </trkpt>
      <trkpt lat="47.55226" lon="6.76907">
        <ele>365</ele>
        <time>2017-12-31T09:05:49Z</time>
      </trkpt>
      <trkpt lat="47.55246" lon="6.76919">
        <ele>364</ele>
        <time>2017-12-31T09:05:54Z</time>
      </trkpt>
      <trkpt lat="47.55269" lon="6.76925">
        <ele>362</ele>
        <time>2017-12-31T09:05:59Z</time>
      </trkpt>
      <trkpt lat="47.55295" lon="6.76923">
        <ele>361</ele>
        <time>2017-12-31T09:06:04Z</time>
      </trkpt>
      <trkpt lat="47.55324" lon="6.76914">
        <ele>361</ele>
        <time>2017-12-31T09:06:09Z</time>
      </trkpt>
      <trkpt lat="47.55354" lon="6.76902">
        <ele>360</ele>
        <time>2017-12-31T09:06:14Z</time>
      </trkpt>
      <trkpt lat="47.55383" lon="6.76891">
        <ele>360</ele>
        <time>2017-12-31T09:06:19Z</time>
      </trkpt>
      <trkpt lat="47.55412" lon="6.76879">
        <ele>360</ele>
        <time>2017-12-31T09:06:24Z</time>
      </trkpt>
      <trkpt lat="47.55434" lon="6.76873">
        <ele>361</ele>
        <time>2017-12-31T09:06:29Z</time>
      </trkpt>
      <trkpt lat="47.55454" lon="6.76869">
        <ele>361</ele>
        <time>2017-12-31T09:06:34Z</time>
      </trkpt>
      <trkpt lat="47.55473" lon="6.76862">
        <ele>362</ele>
        <time>2017-12-31T09:06:39Z</time>
      </trkpt>
      <trkpt lat="47.55492" lon="6.76854">
        <ele>362</ele>
        <time>2017-12-31T09:06:44Z</time>
      </trkpt>
      <trkpt lat="47.5551" lon="6.76844">
        <ele>363</ele>
        <time>2017-12-31T09:06:49Z</time>
      </trkpt>
      <trkpt lat="47.55529" lon="6.76832">
        <ele>365</ele>
        <time>2017-12-31T09:06:54Z</time>
      </trkpt>
      <trkpt lat="47.55547" lon="6.76819">
        <ele>365</ele>
        <time>2017-12-31T09:06:59Z</time>
      </trkpt>
      <trkpt lat="47.55565" lon="6.76805">
        <ele>365</ele>
        <time>2017-12-31T09:07:04Z</time>
      </trkpt>
      <trkpt lat="47.55584" lon="6.76791">
        <ele>366</ele>
        <time>2017-12-31T09:07:09Z</time>
      </trkpt>
      <trkpt lat="47.55603" lon="6.76778">
        <ele>366</ele>
        <time>2017-12-31T09:07:14Z</time>
      </trkpt>
      <trkpt lat="47.55619" lon="6.76764">
        <ele>366</ele>
        <time>2017-12-31T09:07:19Z</time>
      </trkpt>
      <trkpt lat="47.55634" lon="6.76754">
        <ele>366</ele>
        <time>2017-12-31T09:07:24Z</time>
      </trkpt>
      <trkpt lat="47.55653" lon="6.76746">
        <ele>367</ele>
        <time>2017-12-31T09:07:29Z</time>
      </trkpt>
      <trkpt lat="47.55674" lon="6.76749">
        <ele>367</ele>
        <time>2017-12-31T09:07:34Z</time>
      </trkpt>
      <trkpt lat="47.55694" lon="6.76758">
        <ele>365</ele>
        <time>2017-12-31T09:07:39Z</time>
      </trkpt>
      <trkpt lat="47.55713" lon="6.76781">
        <ele>365</ele>
        <time>2017-12-31T09:07:44Z</time>
      </trkpt>
      <trkpt lat="47.55729" lon="6.76813">
        <ele>364</ele>
        <time>2017-12-31T09:07:49Z</time>
      </trkpt>
      <trkpt lat="47.55743" lon="6.7685">
        <ele>364</ele>
        <time>2017-12-31T09:07:54Z</time>
      </trkpt>
      <trkpt lat="47.55756" lon="6.76887">
        <ele>364</ele>
        <time>2017-12-31T09:07:59Z</time>
      </trkpt>
      <trkpt lat="47.55768" lon="6.76923">
        <ele>366</ele>
        <time>2017-12-31T09:08:04Z</time>
      </trkpt>
      <trkpt lat="47.55785" lon="6.7694">
        <ele>366</ele>
        <time>2017-12-31T09:08:09Z</time>
      </trkpt>
      <trkpt lat="47.55803" lon="6.76925">
        <ele>366</ele>
        <time>2017-12-31T09:08:17Z</time>
      </trkpt>
      <trkpt lat="47.55822" lon="6.76907">
        <ele>364</ele>
        <time>2017-12-31T09:08:22Z</time>
      </trkpt>
      <trkpt lat="47.55838" lon="6.76892">
        <ele>364</ele>
        <time>2017-12-31T09:08:27Z</time>
      </trkpt>
      <trkpt lat="47.55852" lon="6.7688">
        <ele>364</ele>
        <time>2017-12-31T09:08:32Z</time>
      </trkpt>
      <trkpt lat="47.55862" lon="6.76871">
        <ele>364</ele>
        <time>2017-12-31T09:08:37Z</time>
      </trkpt>
      <trkpt lat="47.55861" lon="6.76893">
        <ele>364</ele>
        <time>2017-12-31T09:09:03Z</time>
      </trkpt>
      <trkpt lat="47.55864" lon="6.76906">
        <ele>364</ele>
        <time>2017-12-31T09:09:08Z</time>
      </trkpt>
      <trkpt lat="47.55859" lon="6.76918">
        <ele>365</ele>
        <time>2017-12-31T09:09:13Z</time>
      </trkpt>
      <trkpt lat="47.55853" lon="6.76927">
        <ele>365</ele>
        <time>2017-12-31T09:09:18Z</time>
      </trkpt>
      <trkpt lat="47.55847" lon="6.76938">
        <ele>365</ele>
        <time>2017-12-31T09:09:23Z</time>
      </trkpt>
      <trkpt lat="47.55847" lon="6.76948">
        <ele>366</ele>
        <time>2017-12-31T09:09:28Z</time>
      </trkpt>
      <trkpt lat="47.55845" lon="6.76959">
        <ele>366</ele>
        <time>2017-12-31T09:09:33Z</time>
      </trkpt>
      <trkpt lat="47.55844" lon="6.76989">
        <ele>367</ele>
        <time>2017-12-31T09:09:43Z</time>
      </trkpt>
      <trkpt lat="47.55842" lon="6.77002">
        <ele>368</ele>
        <time>2017-12-31T09:09:48Z</time>
      </trkpt>
      <trkpt lat="47.55843" lon="6.77017">
        <ele>367</ele>
        <time>2017-12-31T09:09:53Z</time>
      </trkpt>
      <trkpt lat="47.55846" lon="6.77022">
        <ele>367</ele>
        <time>2017-12-31T09:09:58Z</time>
      </trkpt>
      <trkpt lat="47.5586" lon="6.77131">
        <ele>364</ele>
        <time>2017-12-31T09:10:28Z</time>
      </trkpt>
      <trkpt lat="47.55859" lon="6.77143">
        <ele>364</ele>
        <time>2017-12-31T09:10:33Z</time>
      </trkpt>
      <trkpt lat="47.55859" lon="6.77155">
        <ele>364</ele>
        <time>2017-12-31T09:11:07Z</time>
      </trkpt>
      <trkpt lat="47.55868" lon="6.77174">
        <ele>362</ele>
        <time>2017-12-31T09:11:12Z</time>
      </trkpt>
      <trkpt lat="47.5588" lon="6.77201">
        <ele>361</ele>
        <time>2017-12-31T09:11:17Z</time>
      </trkpt>
      <trkpt lat="47.55891" lon="6.77238">
        <ele>360</ele>
        <time>2017-12-31T09:11:22Z</time>
      </trkpt>
      <trkpt lat="47.55896" lon="6.77265">
        <ele>359</ele>
        <time>2017-12-31T09:11:27Z</time>
      </trkpt>
      <trkpt lat="47.55901" lon="6.77282">
        <ele>359</ele>
        <time>2017-12-31T09:11:32Z</time>
      </trkpt>
      <trkpt lat="47.55903" lon="6.77289">
        <ele>359</ele>
        <time>2017-12-31T09:11:42Z</time>
      </trkpt>
      <trkpt lat="47.55916" lon="6.77295">
        <ele>358</ele>
        <time>2017-12-31T09:11:55Z</time>
      </trkpt>
      <trkpt lat="47.55923" lon="6.77301">
        <ele>355</ele>
        <time>2017-12-31T09:12:00Z</time>
      </trkpt>
      <trkpt lat="47.55929" lon="6.77299">
        <ele>355</ele>
        <time>2017-12-31T09:12:05Z</time>
      </trkpt>
      <trkpt lat="47.55953" lon="6.77296">
        <ele>355</ele>
        <time>2017-12-31T09:12:15Z</time>
      </trkpt>
      <trkpt lat="47.55968" lon="6.7729">
        <ele>355</ele>
        <time>2017-12-31T09:12:20Z</time>
      </trkpt>
      <trkpt lat="47.55986" lon="6.77288">
        <ele>354</ele>
        <time>2017-12-31T09:12:25Z</time>
      </trkpt>
      <trkpt lat="47.56004" lon="6.77289">
        <ele>351</ele>
        <time>2017-12-31T09:12:30Z</time>
      </trkpt>
      <trkpt lat="47.56022" lon="6.773">
        <ele>351</ele>
        <time>2017-12-31T09:12:35Z</time>
      </trkpt>
      <trkpt lat="47.56044" lon="6.77307">
        <ele>350</ele>
        <time>2017-12-31T09:12:40Z</time>
      </trkpt>
      <trkpt lat="47.56067" lon="6.7732">
        <ele>348</ele>
        <time>2017-12-31T09:12:45Z</time>
      </trkpt>
      <trkpt lat="47.56088" lon="6.77348">
        <ele>342</ele>
        <time>2017-12-31T09:12:50Z</time>
      </trkpt>
      <trkpt lat="47.56095" lon="6.77364">
        <ele>341</ele>
        <time>2017-12-31T09:12:55Z</time>
      </trkpt>
      <trkpt lat="47.56109" lon="6.77386">
        <ele>340</ele>
        <time>2017-12-31T09:13:01Z</time>
      </trkpt>
      <trkpt lat="47.56133" lon="6.77395">
        <ele>338</ele>
        <time>2017-12-31T09:13:06Z</time>
      </trkpt>
      <trkpt lat="47.56161" lon="6.77418">
        <ele>333</ele>
        <time>2017-12-31T09:13:11Z</time>
      </trkpt>
      <trkpt lat="47.56192" lon="6.77451">
        <ele>329</ele>
        <time>2017-12-31T09:13:16Z</time>
      </trkpt>
      <trkpt lat="47.56225" lon="6.77487">
        <ele>328</ele>
        <time>2017-12-31T09:13:21Z</time>
      </trkpt>
      <trkpt lat="47.56257" lon="6.7752">
        <ele>327</ele>
        <time>2017-12-31T09:13:26Z</time>
      </trkpt>
      <trkpt lat="47.56282" lon="6.77549">
        <ele>328</ele>
        <time>2017-12-31T09:13:31Z</time>
      </trkpt>
      <trkpt lat="47.56297" lon="6.7758">
        <ele>329</ele>
        <time>2017-12-31T09:13:36Z</time>
      </trkpt>
      <trkpt lat="47.56309" lon="6.77609">
        <ele>333</ele>
        <time>2017-12-31T09:13:41Z</time>
      </trkpt>
      <trkpt lat="47.56334" lon="6.7761">
        <ele>340</ele>
        <time>2017-12-31T09:13:46Z</time>
      </trkpt>
      <trkpt lat="47.56352" lon="6.77594">
        <ele>339</ele>
        <time>2017-12-31T09:13:51Z</time>
      </trkpt>
      <trkpt lat="47.56376" lon="6.77584">
        <ele>342</ele>
        <time>2017-12-31T09:13:57Z</time>
      </trkpt>
      <trkpt lat="47.56392" lon="6.77569">
        <ele>337</ele>
        <time>2017-12-31T09:14:02Z</time>
      </trkpt>
      <trkpt lat="47.5641" lon="6.77552">
        <ele>336</ele>
        <time>2017-12-31T09:14:07Z</time>
      </trkpt>
      <trkpt lat="47.56429" lon="6.77535">
        <ele>341</ele>
        <time>2017-12-31T09:14:12Z</time>
      </trkpt>
      <trkpt lat="47.56448" lon="6.77518">
        <ele>341</ele>
        <time>2017-12-31T09:14:17Z</time>
      </trkpt>
      <trkpt lat="47.56467" lon="6.77498">
        <ele>335</ele>
        <time>2017-12-31T09:14:22Z</time>
      </trkpt>
      <trkpt lat="47.56485" lon="6.77478">
        <ele>336</ele>
        <time>2017-12-31T09:14:27Z</time>
      </trkpt>
      <trkpt lat="47.56503" lon="6.77459">
        <ele>339</ele>
        <time>2017-12-31T09:14:32Z</time>
      </trkpt>
      <trkpt lat="47.56525" lon="6.77459">
        <ele>340</ele>
        <time>2017-12-31T09:14:37Z</time>
      </trkpt>
      <trkpt lat="47.5654" lon="6.77477">
        <ele>342</ele>
        <time>2017-12-31T09:14:43Z</time>
      </trkpt>
      <trkpt lat="47.56555" lon="6.77465">
        <ele>342</ele>
        <time>2017-12-31T09:14:48Z</time>
      </trkpt>
      <trkpt lat="47.56569" lon="6.77439">
        <ele>340</ele>
        <time>2017-12-31T09:14:54Z</time>
      </trkpt>
      <trkpt lat="47.56587" lon="6.77436">
        <ele>343</ele>
        <time>2017-12-31T09:14:59Z</time>
      </trkpt>
      <trkpt lat="47.56605" lon="6.77434">
        <ele>344</ele>
        <time>2017-12-31T09:15:04Z</time>
      </trkpt>
      <trkpt lat="47.56627" lon="6.77424">
        <ele>344</ele>
        <time>2017-12-31T09:15:09Z</time>
      </trkpt>
      <trkpt lat="47.56643" lon="6.77422">
        <ele>343</ele>
        <time>2017-12-31T09:15:14Z</time>
      </trkpt>
      <trkpt lat="47.56657" lon="6.77415">
        <ele>337</ele>
        <time>2017-12-31T09:15:19Z</time>
      </trkpt>
      <trkpt lat="47.5667" lon="6.77413">
        <ele>338</ele>
        <time>2017-12-31T09:15:24Z</time>
      </trkpt>
      <trkpt lat="47.56685" lon="6.77414">
        <ele>337</ele>
        <time>2017-12-31T09:15:29Z</time>
      </trkpt>
      <trkpt lat="47.56701" lon="6.7742">
        <ele>344</ele>
        <time>2017-12-31T09:15:34Z</time>
      </trkpt>
      <trkpt lat="47.56725" lon="6.77433">
        <ele>344</ele>
        <time>2017-12-31T09:15:40Z</time>
      </trkpt>
      <trkpt lat="47.56743" lon="6.77444">
        <ele>345</ele>
        <time>2017-12-31T09:15:45Z</time>
      </trkpt>
      <trkpt lat="47.56759" lon="6.77454">
        <ele>343</ele>
        <time>2017-12-31T09:15:50Z</time>
      </trkpt>
      <trkpt lat="47.56779" lon="6.77465">
        <ele>344</ele>
        <time>2017-12-31T09:15:55Z</time>
      </trkpt>
      <trkpt lat="47.56799" lon="6.77478">
        <ele>343</ele>
        <time>2017-12-31T09:16:00Z</time>
      </trkpt>
      <trkpt lat="47.56818" lon="6.77489">
        <ele>342</ele>
        <time>2017-12-31T09:16:05Z</time>
      </trkpt>
      <trkpt lat="47.56837" lon="6.77501">
        <ele>342</ele>
        <time>2017-12-31T09:16:10Z</time>
      </trkpt>
      <trkpt lat="47.56851" lon="6.77513">
        <ele>343</ele>
        <time>2017-12-31T09:16:15Z</time>
      </trkpt>
      <trkpt lat="47.56871" lon="6.7753">
        <ele>343</ele>
        <time>2017-12-31T09:16:21Z</time>
      </trkpt>
      <trkpt lat="47.56888" lon="6.77546">
        <ele>343</ele>
        <time>2017-12-31T09:16:26Z</time>
      </trkpt>
      <trkpt lat="47.56906" lon="6.77561">
        <ele>343</ele>
        <time>2017-12-31T09:16:31Z</time>
      </trkpt>
      <trkpt lat="47.56922" lon="6.77579">
        <ele>340</ele>
        <time>2017-12-31T09:16:36Z</time>
      </trkpt>
      <trkpt lat="47.56939" lon="6.776">
        <ele>343</ele>
        <time>2017-12-31T09:16:41Z</time>
      </trkpt>
      <trkpt lat="47.56958" lon="6.77616">
        <ele>343</ele>
        <time>2017-12-31T09:16:46Z</time>
      </trkpt>
      <trkpt lat="47.56976" lon="6.77635">
        <ele>343</ele>
        <time>2017-12-31T09:16:51Z</time>
      </trkpt>
      <trkpt lat="47.56995" lon="6.77652">
        <ele>342</ele>
        <time>2017-12-31T09:16:56Z</time>
      </trkpt>
      <trkpt lat="47.57013" lon="6.7767">
        <ele>342</ele>
        <time>2017-12-31T09:17:01Z</time>
      </trkpt>
      <trkpt lat="47.57035" lon="6.77693">
        <ele>343</ele>
        <time>2017-12-31T09:17:06Z</time>
      </trkpt>
      <trkpt lat="47.57055" lon="6.77715">
        <ele>344</ele>
        <time>2017-12-31T09:17:11Z</time>
      </trkpt>
      <trkpt lat="47.57074" lon="6.77736">
        <ele>344</ele>
        <time>2017-12-31T09:17:16Z</time>
      </trkpt>
      <trkpt lat="47.57092" lon="6.77754">
        <ele>344</ele>
        <time>2017-12-31T09:17:21Z</time>
      </trkpt>
      <trkpt lat="47.57109" lon="6.77774">
        <ele>345</ele>
        <time>2017-12-31T09:17:26Z</time>
      </trkpt>
      <trkpt lat="47.57132" lon="6.77801">
        <ele>346</ele>
        <time>2017-12-31T09:17:31Z</time>
      </trkpt>
      <trkpt lat="47.57155" lon="6.77817">
        <ele>345</ele>
        <time>2017-12-31T09:17:36Z</time>
      </trkpt>
      <trkpt lat="47.57172" lon="6.77825">
        <ele>342</ele>
        <time>2017-12-31T09:17:41Z</time>
      </trkpt>
      <trkpt lat="47.57193" lon="6.77837">
        <ele>347</ele>
        <time>2017-12-31T09:17:46Z</time>
      </trkpt>
      <trkpt lat="47.57207" lon="6.77842">
        <ele>347</ele>
        <time>2017-12-31T09:17:51Z</time>
      </trkpt>
      <trkpt lat="47.5722" lon="6.77847">
        <ele>346</ele>
        <time>2017-12-31T09:17:56Z</time>
      </trkpt>
      <trkpt lat="47.57239" lon="6.77855">
        <ele>345</ele>
        <time>2017-12-31T09:18:01Z</time>
      </trkpt>
      <trkpt lat="47.57262" lon="6.77864">
        <ele>342</ele>
        <time>2017-12-31T09:18:06Z</time>
      </trkpt>
      <trkpt lat="47.57288" lon="6.77871">
        <ele>342</ele>
        <time>2017-12-31T09:18:11Z</time>
      </trkpt>
      <trkpt lat="47.57317" lon="6.77883">
        <ele>341</ele>
        <time>2017-12-31T09:18:19Z</time>
      </trkpt>
      <trkpt lat="47.57338" lon="6.77897">
        <ele>339</ele>
        <time>2017-12-31T09:18:24Z</time>
      </trkpt>
      <trkpt lat="47.5736" lon="6.77911">
        <ele>338</ele>
        <time>2017-12-31T09:18:29Z</time>
      </trkpt>
      <trkpt lat="47.57378" lon="6.77927">
        <ele>342</ele>
        <time>2017-12-31T09:18:34Z</time>
      </trkpt>
      <trkpt lat="47.57395" lon="6.77948">
        <ele>342</ele>
        <time>2017-12-31T09:18:39Z</time>
      </trkpt>
      <trkpt lat="47.57412" lon="6.77967">
        <ele>342</ele>
        <time>2017-12-31T09:18:44Z</time>
      </trkpt>
      <trkpt lat="47.57428" lon="6.77985">
        <ele>340</ele>
        <time>2017-12-31T09:18:49Z</time>
      </trkpt>
      <trkpt lat="47.57443" lon="6.77999">
        <ele>339</ele>
        <time>2017-12-31T09:18:54Z</time>
      </trkpt>
      <trkpt lat="47.57458" lon="6.78009">
        <ele>345</ele>
        <time>2017-12-31T09:18:59Z</time>
      </trkpt>
      <trkpt lat="47.57478" lon="6.7802">
        <ele>345</ele>
        <time>2017-12-31T09:19:04Z</time>
      </trkpt>
      <trkpt lat="47.57505" lon="6.7803">
        <ele>343</ele>
        <time>2017-12-31T09:19:09Z</time>
      </trkpt>
      <trkpt lat="47.57524" lon="6.78039">
        <ele>344</ele>
        <time>2017-12-31T09:19:14Z</time>
      </trkpt>
      <trkpt lat="47.57544" lon="6.78054">
        <ele>344</ele>
        <time>2017-12-31T09:19:19Z</time>
      </trkpt>
      <trkpt lat="47.5757" lon="6.78075">
        <ele>344</ele>
        <time>2017-12-31T09:19:24Z</time>
      </trkpt>
      <trkpt lat="47.57591" lon="6.78089">
        <ele>344</ele>
        <time>2017-12-31T09:19:30Z</time>
      </trkpt>
      <trkpt lat="47.57612" lon="6.78105">
        <ele>344</ele>
        <time>2017-12-31T09:19:35Z</time>
      </trkpt>
      <trkpt lat="47.57631" lon="6.78118">
        <ele>344</ele>
        <time>2017-12-31T09:19:40Z</time>
      </trkpt>
      <trkpt lat="47.57658" lon="6.78133">
        <ele>343</ele>
        <time>2017-12-31T09:19:45Z</time>
      </trkpt>
      <trkpt lat="47.57682" lon="6.78149">
        <ele>340</ele>
        <time>2017-12-31T09:19:50Z</time>
      </trkpt>
      <trkpt lat="47.57702" lon="6.78164">
        <ele>341</ele>
        <time>2017-12-31T09:19:55Z</time>
      </trkpt>
      <trkpt lat="47.5772" lon="6.7818">
        <ele>349</ele>
        <time>2017-12-31T09:20:00Z</time>
      </trkpt>
      <trkpt lat="47.57739" lon="6.78193">
        <ele>349</ele>
        <time>2017-12-31T09:20:05Z</time>
      </trkpt>
      <trkpt lat="47.57758" lon="6.78203">
        <ele>349</ele>
        <time>2017-12-31T09:20:11Z</time>
      </trkpt>
      <trkpt lat="47.57774" lon="6.78216">
        <ele>350</ele>
        <time>2017-12-31T09:20:16Z</time>
      </trkpt>
      <trkpt lat="47.57788" lon="6.78226">
        <ele>350</ele>
        <time>2017-12-31T09:20:21Z</time>
      </trkpt>
      <trkpt lat="47.57805" lon="6.78234">
        <ele>349</ele>
        <time>2017-12-31T09:20:26Z</time>
      </trkpt>
      <trkpt lat="47.57823" lon="6.78245">
        <ele>350</ele>
        <time>2017-12-31T09:20:31Z</time>
      </trkpt>
      <trkpt lat="47.57841" lon="6.78258">
        <ele>351</ele>
        <time>2017-12-31T09:20:36Z</time>
      </trkpt>
      <trkpt lat="47.57857" lon="6.78266">
        <ele>352</ele>
        <time>2017-12-31T09:20:41Z</time>
      </trkpt>
      <trkpt lat="47.57876" lon="6.78281">
        <ele>352</ele>
        <time>2017-12-31T09:20:46Z</time>
      </trkpt>
      <trkpt lat="47.5789" lon="6.78296">
        <ele>352</ele>
        <time>2017-12-31T09:20:51Z</time>
      </trkpt>
      <trkpt lat="47.579" lon="6.78312">
        <ele>353</ele>
        <time>2017-12-31T09:20:56Z</time>
      </trkpt>
      <trkpt lat="47.57906" lon="6.78318">
        <ele>353</ele>
        <time>2017-12-31T09:21:01Z</time>
      </trkpt>
      <trkpt lat="47.57912" lon="6.78325">
        <ele>354</ele>
        <time>2017-12-31T09:21:06Z</time>
      </trkpt>
      <trkpt lat="47.57919" lon="6.78334">
        <ele>354</ele>
        <time>2017-12-31T09:21:11Z</time>
      </trkpt>
      <trkpt lat="47.57932" lon="6.78348">
        <ele>354</ele>
        <time>2017-12-31T09:21:18Z</time>
      </trkpt>
      <trkpt lat="47.57943" lon="6.78363">
        <ele>354</ele>
        <time>2017-12-31T09:21:23Z</time>
      </trkpt>
      <trkpt lat="47.57954" lon="6.78374">
        <ele>354</ele>
        <time>2017-12-31T09:21:28Z</time>
      </trkpt>
      <trkpt lat="47.57961" lon="6.78386">
        <ele>354</ele>
        <time>2017-12-31T09:21:33Z</time>
      </trkpt>
      <trkpt lat="47.5797" lon="6.78399">
        <ele>354</ele>
        <time>2017-12-31T09:21:38Z</time>
      </trkpt>
      <trkpt lat="47.57978" lon="6.78416">
        <ele>354</ele>
        <time>2017-12-31T09:21:43Z</time>
      </trkpt>
      <trkpt lat="47.57988" lon="6.78432">
        <ele>360</ele>
        <time>2017-12-31T09:21:48Z</time>
      </trkpt>
      <trkpt lat="47.57995" lon="6.78448">
        <ele>362</ele>
        <time>2017-12-31T09:21:53Z</time>
      </trkpt>
      <trkpt lat="47.58003" lon="6.78465">
        <ele>353</ele>
        <time>2017-12-31T09:21:58Z</time>
      </trkpt>
      <trkpt lat="47.58011" lon="6.7848">
        <ele>354</ele>
        <time>2017-12-31T09:22:03Z</time>
      </trkpt>
      <trkpt lat="47.58018" lon="6.78496">
        <ele>355</ele>
        <time>2017-12-31T09:22:08Z</time>
      </trkpt>
      <trkpt lat="47.58024" lon="6.78512">
        <ele>359</ele>
        <time>2017-12-31T09:22:13Z</time>
      </trkpt>
      <trkpt lat="47.5803" lon="6.78531">
        <ele>359</ele>
        <time>2017-12-31T09:22:18Z</time>
      </trkpt>
      <trkpt lat="47.58038" lon="6.78551">
        <ele>360</ele>
        <time>2017-12-31T09:22:23Z</time>
      </trkpt>
      <trkpt lat="47.58046" lon="6.78568">
        <ele>359</ele>
        <time>2017-12-31T09:22:28Z</time>
      </trkpt>
      <trkpt lat="47.58054" lon="6.78586">
        <ele>364</ele>
        <time>2017-12-31T09:22:33Z</time>
      </trkpt>
      <trkpt lat="47.58058" lon="6.786">
        <ele>364</ele>
        <time>2017-12-31T09:22:38Z</time>
      </trkpt>
      <trkpt lat="47.58065" lon="6.78619">
        <ele>364</ele>
        <time>2017-12-31T09:22:43Z</time>
      </trkpt>
      <trkpt lat="47.58073" lon="6.78644">
        <ele>363</ele>
        <time>2017-12-31T09:22:48Z</time>
      </trkpt>
      <trkpt lat="47.5808" lon="6.78669">
        <ele>360</ele>
        <time>2017-12-31T09:22:53Z</time>
      </trkpt>
      <trkpt lat="47.58089" lon="6.78701">
        <ele>355</ele>
        <time>2017-12-31T09:22:58Z</time>
      </trkpt>
      <trkpt lat="47.58096" lon="6.78735">
        <ele>357</ele>
        <time>2017-12-31T09:23:03Z</time>
      </trkpt>
      <trkpt lat="47.58101" lon="6.78766">
        <ele>358</ele>
        <time>2017-12-31T09:23:08Z</time>
      </trkpt>
      <trkpt lat="47.58106" lon="6.78795">
        <ele>357</ele>
        <time>2017-12-31T09:23:13Z</time>
      </trkpt>
      <trkpt lat="47.58119" lon="6.78826">
        <ele>356</ele>
        <time>2017-12-31T09:23:18Z</time>
      </trkpt>
      <trkpt lat="47.58135" lon="6.78867">
        <ele>356</ele>
        <time>2017-12-31T09:23:23Z</time>
      </trkpt>
      <trkpt lat="47.58144" lon="6.78908">
        <ele>356</ele>
        <time>2017-12-31T09:23:28Z</time>
      </trkpt>
      <trkpt lat="47.58149" lon="6.78943">
        <ele>356</ele>
        <time>2017-12-31T09:23:33Z</time>
      </trkpt>
      <trkpt lat="47.58156" lon="6.7898">
        <ele>355</ele>
        <time>2017-12-31T09:23:38Z</time>
      </trkpt>
      <trkpt lat="47.58161" lon="6.79042">
        <ele>356</ele>
        <time>2017-12-31T09:23:47Z</time>
      </trkpt>
      <trkpt lat="47.58162" lon="6.79076">
        <ele>355</ele>
        <time>2017-12-31T09:23:52Z</time>
      </trkpt>
      <trkpt lat="47.58162" lon="6.79103">
        <ele>357</ele>
        <time>2017-12-31T09:23:57Z</time>
      </trkpt>
      <trkpt lat="47.58155" lon="6.79122">
        <ele>359</ele>
        <time>2017-12-31T09:24:02Z</time>
      </trkpt>
      <trkpt lat="47.58146" lon="6.79145">
        <ele>359</ele>
        <time>2017-12-31T09:24:07Z</time>
      </trkpt>
      <trkpt lat="47.58144" lon="6.79167">
        <ele>361</ele>
        <time>2017-12-31T09:24:12Z</time>
      </trkpt>
      <trkpt lat="47.58141" lon="6.79193">
        <ele>363</ele>
        <time>2017-12-31T09:24:18Z</time>
      </trkpt>
      <trkpt lat="47.58139" lon="6.79218">
        <ele>363</ele>
        <time>2017-12-31T09:24:23Z</time>
      </trkpt>
      <trkpt lat="47.58152" lon="6.79223">
        <ele>363</ele>
        <time>2017-12-31T09:24:28Z</time>
      </trkpt>
      <trkpt lat="47.58173" lon="6.79224">
        <ele>359</ele>
        <time>2017-12-31T09:24:33Z</time>
      </trkpt>
      <trkpt lat="47.58198" lon="6.79227">
        <ele>359</ele>
        <time>2017-12-31T09:24:38Z</time>
      </trkpt>
      <trkpt lat="47.58228" lon="6.79223">
        <ele>358</ele>
        <time>2017-12-31T09:24:43Z</time>
      </trkpt>
      <trkpt lat="47.58262" lon="6.79219">
        <ele>355</ele>
        <time>2017-12-31T09:24:48Z</time>
      </trkpt>
      <trkpt lat="47.5829" lon="6.79215">
        <ele>354</ele>
        <time>2017-12-31T09:24:53Z</time>
      </trkpt>
      <trkpt lat="47.58318" lon="6.79215">
        <ele>354</ele>
        <time>2017-12-31T09:24:58Z</time>
      </trkpt>
      <trkpt lat="47.58352" lon="6.79214">
        <ele>354</ele>
        <time>2017-12-31T09:25:04Z</time>
      </trkpt>
      <trkpt lat="47.58377" lon="6.79209">
        <ele>354</ele>
        <time>2017-12-31T09:25:09Z</time>
      </trkpt>
      <trkpt lat="47.58442" lon="6.79195">
        <ele>355</ele>
        <time>2017-12-31T09:25:23Z</time>
      </trkpt>
      <trkpt lat="47.58464" lon="6.79205">
        <ele>355</ele>
        <time>2017-12-31T09:25:28Z</time>
      </trkpt>
      <trkpt lat="47.58487" lon="6.79215">
        <ele>356</ele>
        <time>2017-12-31T09:25:33Z</time>
      </trkpt>
      <trkpt lat="47.5851" lon="6.79219">
        <ele>356</ele>
        <time>2017-12-31T09:25:38Z</time>
      </trkpt>
      <trkpt lat="47.58534" lon="6.79214">
        <ele>356</ele>
        <time>2017-12-31T09:25:43Z</time>
      </trkpt>
      <trkpt lat="47.58558" lon="6.79203">
        <ele>356</ele>
        <time>2017-12-31T09:25:48Z</time>
      </trkpt>
      <trkpt lat="47.58584" lon="6.79187">
        <ele>356</ele>
        <time>2017-12-31T09:25:53Z</time>
      </trkpt>
      <trkpt lat="47.58612" lon="6.79171">
        <ele>355</ele>
        <time>2017-12-31T09:25:58Z</time>
      </trkpt>
      <trkpt lat="47.5864" lon="6.79152">
        <ele>354</ele>
        <time>2017-12-31T09:26:03Z</time>
      </trkpt>
      <trkpt lat="47.58669" lon="6.79131">
        <ele>354</ele>
        <time>2017-12-31T09:26:08Z</time>
      </trkpt>
      <trkpt lat="47.58694" lon="6.79114">
        <ele>354</ele>
        <time>2017-12-31T09:26:13Z</time>
      </trkpt>
      <trkpt lat="47.58716" lon="6.79096">
        <ele>354</ele>
        <time>2017-12-31T09:26:18Z</time>
      </trkpt>
      <trkpt lat="47.58741" lon="6.79076">
        <ele>354</ele>
        <time>2017-12-31T09:26:23Z</time>
      </trkpt>
      <trkpt lat="47.58761" lon="6.79067">
        <ele>354</ele>
        <time>2017-12-31T09:26:28Z</time>
      </trkpt>
      <trkpt lat="47.58778" lon="6.79066">
        <ele>354</ele>
        <time>2017-12-31T09:26:33Z</time>
      </trkpt>
      <trkpt lat="47.58804" lon="6.79067">
        <ele>354</ele>
        <time>2017-12-31T09:26:38Z</time>
      </trkpt>
      <trkpt lat="47.58828" lon="6.79069">
        <ele>354</ele>
        <time>2017-12-31T09:26:43Z</time>
      </trkpt>
      <trkpt lat="47.58846" lon="6.79061">
        <ele>356</ele>
        <time>2017-12-31T09:26:48Z</time>
      </trkpt>
      <trkpt lat="47.58862" lon="6.79052">
        <ele>357</ele>
        <time>2017-12-31T09:26:53Z</time>
      </trkpt>
      <trkpt lat="47.58879" lon="6.7904">
        <ele>357</ele>
        <time>2017-12-31T09:26:58Z</time>
      </trkpt>
      <trkpt lat="47.58891" lon="6.79033">
        <ele>358</ele>
        <time>2017-12-31T09:27:03Z</time>
      </trkpt>
      <trkpt lat="47.58901" lon="6.79026">
        <ele>359</ele>
        <time>2017-12-31T09:27:08Z</time>
      </trkpt>
      <trkpt lat="47.5891" lon="6.79017">
        <ele>359</ele>
        <time>2017-12-31T09:27:13Z</time>
      </trkpt>
      <trkpt lat="47.58923" lon="6.79008">
        <ele>363</ele>
        <time>2017-12-31T09:27:18Z</time>
      </trkpt>
      <trkpt lat="47.58936" lon="6.79001">
        <ele>364</ele>
        <time>2017-12-31T09:27:24Z</time>
      </trkpt>
      <trkpt lat="47.59041" lon="6.78958">
        <ele>372</ele>
        <time>2017-12-31T09:28:16.04Z</time>
      </trkpt>
      <trkpt lat="47.59169" lon="6.78928">
        <ele>377</ele>
        <time>2017-12-31T09:29:17.27Z</time>
      </trkpt>
      <trkpt lat="47.5931" lon="6.78892">
        <ele>381</ele>
        <time>2017-12-31T09:30:25.64Z</time>
      </trkpt>
      <trkpt lat="47.59394" lon="6.78868">
        <ele>381</ele>
        <time>2017-12-31T09:31:06.26Z</time>
      </trkpt>
      <trkpt lat="47.5947" lon="6.7881">
        <ele>385</ele>
        <time>2017-12-31T09:31:46.52Z</time>
      </trkpt>
      <trkpt lat="47.59551" lon="6.78798">
        <ele>390</ele>
        <time>2017-12-31T09:32:25.22Z</time>
      </trkpt>
      <trkpt lat="47.59571" lon="6.78686">
        <ele>388</ele>
        <time>2017-12-31T09:33:02.25Z</time>
      </trkpt>
      <trkpt lat="47.59611" lon="6.78559">
        <ele>392</ele>
        <time>2017-12-31T09:33:47.14Z</time>
      </trkpt>
      <trkpt lat="47.59652" lon="6.78441">
        <ele>394</ele>
        <time>2017-12-31T09:34:29.56Z</time>
      </trkpt>
      <trkpt lat="47.59742" lon="6.78394">
        <ele>400</ele>
        <time>2017-12-31T09:35:14.82Z</time>
      </trkpt>
      <trkpt lat="47.59775" lon="6.78371">
        <ele>401</ele>
        <time>2017-12-31T09:35:32.31Z</time>
      </trkpt>
      <trkpt lat="47.59794" lon="6.78321">
        <ele>393</ele>
        <time>2017-12-31T09:35:50.48Z</time>
      </trkpt>
      <trkpt lat="47.5992" lon="6.78285">
        <ele>384</ele>
        <time>2017-12-31T09:36:51.42Z</time>
      </trkpt>
      <trkpt lat="47.59982" lon="6.78252">
        <ele>379</ele>
        <time>2017-12-31T09:37:22.72Z</time>
      </trkpt>
      <trkpt lat="47.60053" lon="6.78207">
        <ele>373</ele>
        <time>2017-12-31T09:37:59.35Z</time>
      </trkpt>
      <trkpt lat="47.60109" lon="6.78175">
        <ele>375</ele>
        <time>2017-12-31T09:38:28.11Z</time>
      </trkpt>
      <trkpt lat="47.60095" lon="6.7816">
        <ele>372</ele>
        <time>2017-12-31T09:38:36.51Z</time>
      </trkpt>
      <trkpt lat="47.60061" lon="6.78149">
        <ele>367</ele>
        <time>2017-12-31T09:38:52.70Z</time>
      </trkpt>
      <trkpt lat="47.60008" lon="6.78165">
        <ele>366</ele>
        <time>2017-12-31T09:39:18.57Z</time>
      </trkpt>
      <trkpt lat="47.5995" lon="6.78175">
        <ele>370</ele>
        <time>2017-12-31T09:39:46.29Z</time>
      </trkpt>
      <trkpt lat="47.59882" lon="6.78184">
        <ele>372</ele>
        <time>2017-12-31T09:40:18.71Z</time>
      </trkpt>
      <trkpt lat="47.59823" lon="6.78197">
        <ele>374</ele>
        <time>2017-12-31T09:40:47.18Z</time>
      </trkpt>
      <trkpt lat="47.59726" lon="6.7819">
        <ele>372</ele>
        <time>2017-12-31T09:41:33.30Z</time>
      </trkpt>
      <trkpt lat="47.59727" lon="6.78143">
        <ele>371</ele>
        <time>2017-12-31T09:41:48.44Z</time>
      </trkpt>
      <trkpt lat="47.59704" lon="6.78117">
        <ele>373</ele>
        <time>2017-12-31T09:42:02.20Z</time>
      </trkpt>
      <trkpt lat="47.59666" lon="6.78122">
        <ele>375</ele>
        <time>2017-12-31T09:42:20.11Z</time>
      </trkpt>
      <trkpt lat="47.59622" lon="6.78128">
        <ele>376</ele>
        <time>2017-12-31T09:42:41.49Z</time>
      </trkpt>
      <trkpt lat="47.59595" lon="6.78126">
        <ele>376</ele>
        <time>2017-12-31T09:42:53.91Z</time>
      </trkpt>
      <trkpt lat="47.59619" lon="6.78098">
        <ele>379</ele>
        <time>2017-12-31T09:43:08.10Z</time>
      </trkpt>
      <trkpt lat="47.59658" lon="6.78066">
        <ele>387</ele>
        <time>2017-12-31T09:43:29.29Z</time>
      </trkpt>
      <trkpt lat="47.59688" lon="6.78036">
        <ele>388</ele>
        <time>2017-12-31T09:43:46.66Z</time>
      </trkpt>
      <trkpt lat="47.59723" lon="6.78006">
        <ele>389</ele>
        <time>2017-12-31T09:44:05.74Z</time>
      </trkpt>
      <trkpt lat="47.59747" lon="6.77993">
        <ele>393</ele>
        <time>2017-12-31T09:44:18.13Z</time>
      </trkpt>
      <trkpt lat="47.59781" lon="6.77956">
        <ele>392</ele>
        <time>2017-12-31T09:44:37.81Z</time>
      </trkpt>
      <trkpt lat="47.59794" lon="6.77928">
        <ele>393</ele>
        <time>2017-12-31T09:44:48.67Z</time>
      </trkpt>
      <trkpt lat="47.59789" lon="6.77875">
        <ele>400</ele>
        <time>2017-12-31T09:45:05.96Z</time>
      </trkpt>
      <trkpt lat="47.59797" lon="6.77845">
        <ele>399</ele>
        <time>2017-12-31T09:45:16.19Z</time>
      </trkpt>
      <trkpt lat="47.59805" lon="6.7781">
        <ele>402</ele>
        <time>2017-12-31T09:45:27.93Z</time>
      </trkpt>
      <trkpt lat="47.59795" lon="6.7778">
        <ele>405</ele>
        <time>2017-12-31T09:45:38.67Z</time>
      </trkpt>
      <trkpt lat="47.59784" lon="6.77793">
        <ele>406</ele>
        <time>2017-12-31T09:45:45.54Z</time>
      </trkpt>
      <trkpt lat="47.59775" lon="6.77847">
        <ele>403</ele>
        <time>2017-12-31T09:46:03.23Z</time>
      </trkpt>
      <trkpt lat="47.59756" lon="6.77862">
        <ele>403</ele>
        <time>2017-12-31T09:46:13.38Z</time>
      </trkpt>
      <trkpt lat="47.5974" lon="6.77875">
        <ele>408</ele>
        <time>2017-12-31T09:46:21.99Z</time>
      </trkpt>
      <trkpt lat="47.59724" lon="6.77888">
        <ele>408</ele>
        <time>2017-12-31T09:46:30.60Z</time>
      </trkpt>
      <trkpt lat="47.59661" lon="6.77851">
        <ele>408</ele>
        <time>2017-12-31T09:47:03.04Z</time>
      </trkpt>
      <trkpt lat="47.5964" lon="6.77845">
        <ele>407</ele>
        <time>2017-12-31T09:47:12.86Z</time>
      </trkpt>
      <trkpt lat="47.59639" lon="6.77815">
        <ele>411</ele>
        <time>2017-12-31T09:47:22.49Z</time>
      </trkpt>
      <trkpt lat="47.59606" lon="6.77789">
        <ele>412</ele>
        <time>2017-12-31T09:47:40.33Z</time>
      </trkpt>
      <trkpt lat="47.59575" lon="6.77785">
        <ele>410</ele>
        <time>2017-12-31T09:47:54.83Z</time>
      </trkpt>
      <trkpt lat="47.59538" lon="6.7781">
        <ele>409</ele>
        <time>2017-12-31T09:48:14.50Z</time>
      </trkpt>
      <trkpt lat="47.59507" lon="6.77795">
        <ele>409</ele>
        <time>2017-12-31T09:48:29.72Z</time>
      </trkpt>
      <trkpt lat="47.59491" lon="6.77759">
        <ele>410</ele>
        <time>2017-12-31T09:48:43.64Z</time>
      </trkpt>
      <trkpt lat="47.59452" lon="6.77669">
        <ele>414</ele>
        <time>2017-12-31T09:49:17.97Z</time>
      </trkpt>
      <trkpt lat="47.59426" lon="6.77581">
        <ele>427</ele>
        <time>2017-12-31T09:49:48.75Z</time>
      </trkpt>
      <trkpt lat="47.59402" lon="6.77512">
        <ele>427</ele>
        <time>2017-12-31T09:50:13.64Z</time>
      </trkpt>
      <trkpt lat="47.5942" lon="6.77381">
        <ele>439</ele>
        <time>2017-12-31T09:50:56.51Z</time>
      </trkpt>
      <trkpt lat="47.59455" lon="6.7733">
        <ele>443</ele>
        <time>2017-12-31T09:51:19.84Z</time>
      </trkpt>
      <trkpt lat="47.59493" lon="6.7727">
        <ele>449</ele>
        <time>2017-12-31T09:51:46.13Z</time>
      </trkpt>
      <trkpt lat="47.59522" lon="6.77197">
        <ele>464</ele>
        <time>2017-12-31T09:52:13.25Z</time>
      </trkpt>
      <trkpt lat="47.59536" lon="6.77117">
        <ele>472</ele>
        <time>2017-12-31T09:52:39.60Z</time>
      </trkpt>
      <trkpt lat="47.59533" lon="6.76982">
        <ele>483</ele>
        <time>2017-12-31T09:53:22.94Z</time>
      </trkpt>
      <trkpt lat="47.59539" lon="6.76871">
        <ele>487</ele>
        <time>2017-12-31T09:53:58.76Z</time>
      </trkpt>
      <trkpt lat="47.59559" lon="6.76759">
        <ele>496</ele>
        <time>2017-12-31T09:54:35.78Z</time>
      </trkpt>
      <trkpt lat="47.59568" lon="6.76701">
        <ele>501</ele>
        <time>2017-12-31T09:54:54.78Z</time>
      </trkpt>
      <trkpt lat="47.596" lon="6.7662">
        <ele>511</ele>
        <time>2017-12-31T09:55:24.98Z</time>
      </trkpt>
      <trkpt lat="47.59622" lon="6.76549">
        <ele>514</ele>
        <time>2017-12-31T09:55:49.91Z</time>
      </trkpt>
      <trkpt lat="47.59633" lon="6.76514">
        <ele>515</ele>
        <time>2017-12-31T09:56:02.18Z</time>
      </trkpt>
      <trkpt lat="47.59646" lon="6.76491">
        <ele>517</ele>
        <time>2017-12-31T09:56:11.94Z</time>
      </trkpt>
      <trkpt lat="47.59672" lon="6.76519">
        <ele>518</ele>
        <time>2017-12-31T09:56:27.23Z</time>
      </trkpt>
      <trkpt lat="47.59703" lon="6.76547">
        <ele>517</ele>
        <time>2017-12-31T09:56:44.21Z</time>
      </trkpt>
      <trkpt lat="47.5972" lon="6.7651">
        <ele>518</ele>
        <time>2017-12-31T09:56:58.50Z</time>
      </trkpt>
      <trkpt lat="47.597" lon="6.76461">
        <ele>521</ele>
        <time>2017-12-31T09:57:17.01Z</time>
      </trkpt>
      <trkpt lat="47.59688" lon="6.76396">
        <ele>524</ele>
        <time>2017-12-31T09:57:38.33Z</time>
      </trkpt>
      <trkpt lat="47.59666" lon="6.76347">
        <ele>524</ele>
        <time>2017-12-31T09:57:57.22Z</time>
      </trkpt>
      <trkpt lat="47.59627" lon="6.76306">
        <ele>523</ele>
        <time>2017-12-31T09:58:19.93Z</time>
      </trkpt>
      <trkpt lat="47.59604" lon="6.7627">
        <ele>523</ele>
        <time>2017-12-31T09:58:35.95Z</time>
      </trkpt>
      <trkpt lat="47.59581" lon="6.76214">
        <ele>519</ele>
        <time>2017-12-31T09:58:56.95Z</time>
      </trkpt>
      <trkpt lat="47.59552" lon="6.76113">
        <ele>520</ele>
        <time>2017-12-31T09:59:32.06Z</time>
      </trkpt>
      <trkpt lat="47.59538" lon="6.76019">
        <ele>521</ele>
        <time>2017-12-31T10:00:03.08Z</time>
      </trkpt>
      <trkpt lat="47.59516" lon="6.75924">
        <ele>520</ele>
        <time>2017-12-31T10:00:35.03Z</time>
      </trkpt>
      <trkpt lat="47.59504" lon="6.75864">
        <ele>522</ele>
        <time>2017-12-31T10:00:55.06Z</time>
      </trkpt>
      <trkpt lat="47.59516" lon="6.75811">
        <ele>522</ele>
        <time>2017-12-31T10:01:13.09Z</time>
      </trkpt>
      <trkpt lat="47.59535" lon="6.7577">
        <ele>523</ele>
        <time>2017-12-31T10:01:28.92Z</time>
      </trkpt>
      <trkpt lat="47.59551" lon="6.75781">
        <ele>524</ele>
        <time>2017-12-31T10:01:37.22Z</time>
      </trkpt>
      <trkpt lat="47.59569" lon="6.75774">
        <ele>524</ele>
        <time>2017-12-31T10:01:46.43Z</time>
      </trkpt>
      <trkpt lat="47.59598" lon="6.75731">
        <ele>527</ele>
        <time>2017-12-31T10:02:05.85Z</time>
      </trkpt>
      <trkpt lat="47.5963" lon="6.75695">
        <ele>527</ele>
        <time>2017-12-31T10:02:24.96Z</time>
      </trkpt>
      <trkpt lat="47.5964" lon="6.75652">
        <ele>523</ele>
        <time>2017-12-31T10:02:39.53Z</time>
      </trkpt>
      <trkpt lat="47.59611" lon="6.75607">
        <ele>523</ele>
        <time>2017-12-31T10:02:59.49Z</time>
      </trkpt>
      <trkpt lat="47.59572" lon="6.75562">
        <ele>525</ele>
        <time>2017-12-31T10:03:22.99Z</time>
      </trkpt>
      <trkpt lat="47.59532" lon="6.75497">
        <ele>517</ele>
        <time>2017-12-31T10:03:51.21Z</time>
      </trkpt>
      <trkpt lat="47.59483" lon="6.75437">
        <ele>518</ele>
        <time>2017-12-31T10:04:21.49Z</time>
      </trkpt>
      <trkpt lat="47.59448" lon="6.75416">
        <ele>511</ele>
        <time>2017-12-31T10:04:39.35Z</time>
      </trkpt>
      <trkpt lat="47.59407" lon="6.75373">
        <ele>512</ele>
        <time>2017-12-31T10:05:03Z</time>
      </trkpt>
      <trkpt lat="47.59377" lon="6.75351">
        <ele>511</ele>
        <time>2017-12-31T10:05:18.98Z</time>
      </trkpt>
      <trkpt lat="47.59355" lon="6.75384">
        <ele>512</ele>
        <time>2017-12-31T10:05:33.55Z</time>
      </trkpt>
      <trkpt lat="47.59344" lon="6.7542">
        <ele>514</ele>
        <time>2017-12-31T10:05:46.47Z</time>
      </trkpt>
      <trkpt lat="47.59322" lon="6.75409">
        <ele>511</ele>
        <time>2017-12-31T10:05:57.34Z</time>
      </trkpt>
      <trkpt lat="47.59312" lon="6.75388">
        <ele>509</ele>
        <time>2017-12-31T10:06:05.73Z</time>
      </trkpt>
      <trkpt lat="47.59287" lon="6.75399">
        <ele>507</ele>
        <time>2017-12-31T10:06:17.92Z</time>
      </trkpt>
      <trkpt lat="47.59257" lon="6.75377">
        <ele>506</ele>
        <time>2017-12-31T10:06:33.92Z</time>
      </trkpt>
      <trkpt lat="47.59226" lon="6.75375">
        <ele>498</ele>
        <time>2017-12-31T10:06:48.38Z</time>
      </trkpt>
      <trkpt lat="47.59192" lon="6.75364">
        <ele>495</ele>
        <time>2017-12-31T10:07:05.22Z</time>
      </trkpt>
      <trkpt lat="47.5916" lon="6.75343">
        <ele>488</ele>
        <time>2017-12-31T10:07:21.85Z</time>
      </trkpt>
      <trkpt lat="47.59118" lon="6.75364">
        <ele>482</ele>
        <time>2017-12-31T10:07:42.90Z</time>
      </trkpt>
      <trkpt lat="47.59088" lon="6.75377">
        <ele>479</ele>
        <time>2017-12-31T10:07:57.69Z</time>
      </trkpt>
      <trkpt lat="47.59061" lon="6.75373">
        <ele>468</ele>
        <time>2017-12-31T10:08:10.46Z</time>
      </trkpt>
      <trkpt lat="47.59038" lon="6.75356">
        <ele>466</ele>
        <time>2017-12-31T10:08:22.74Z</time>
      </trkpt>
      <trkpt lat="47.59018" lon="6.75334">
        <ele>463</ele>
        <time>2017-12-31T10:08:34.78Z</time>
      </trkpt>
      <trkpt lat="47.59005" lon="6.75309">
        <ele>464</ele>
        <time>2017-12-31T10:08:44.82Z</time>
      </trkpt>
      <trkpt lat="47.58987" lon="6.75279">
        <ele>453</ele>
        <time>2017-12-31T10:08:57.50Z</time>
      </trkpt>
      <trkpt lat="47.58971" lon="6.75256">
        <ele>452</ele>
        <time>2017-12-31T10:09:08.18Z</time>
      </trkpt>
      <trkpt lat="47.58962" lon="6.75213">
        <ele>453</ele>
        <time>2017-12-31T10:09:22.57Z</time>
      </trkpt>
      <trkpt lat="47.58937" lon="6.75188">
        <ele>450</ele>
        <time>2017-12-31T10:09:37.14Z</time>
      </trkpt>
      <trkpt lat="47.58916" lon="6.7517">
        <ele>445</ele>
        <time>2017-12-31T10:09:48.69Z</time>
      </trkpt>
      <trkpt lat="47.58885" lon="6.75157">
        <ele>439</ele>
        <time>2017-12-31T10:10:04.03Z</time>
      </trkpt>
      <trkpt lat="47.58857" lon="6.75126">
        <ele>436</ele>
        <time>2017-12-31T10:10:20.46Z</time>
      </trkpt>
      <trkpt lat="47.58833" lon="6.75071">
        <ele>431</ele>
        <time>2017-12-31T10:10:41.34Z</time>
      </trkpt>
      <trkpt lat="47.58824" lon="6.75036">
        <ele>429</ele>
        <time>2017-12-31T10:10:53.24Z</time>
      </trkpt>
      <trkpt lat="47.588" lon="6.75003">
        <ele>427</ele>
        <time>2017-12-31T10:11:08.80Z</time>
      </trkpt>
      <trkpt lat="47.5878" lon="6.74971">
        <ele>423</ele>
        <time>2017-12-31T10:11:22.66Z</time>
      </trkpt>
      <trkpt lat="47.58765" lon="6.74935">
        <ele>420</ele>
        <time>2017-12-31T10:11:36.41Z</time>
      </trkpt>
      <trkpt lat="47.58751" lon="6.74894">
        <ele>414</ele>
        <time>2017-12-31T10:11:51.03Z</time>
      </trkpt>
      <trkpt lat="47.58742" lon="6.74853">
        <ele>405</ele>
        <time>2017-12-31T10:12:04.81Z</time>
      </trkpt>
      <trkpt lat="47.58726" lon="6.74823">
        <ele>397</ele>
        <time>2017-12-31T10:12:17.06Z</time>
      </trkpt>
      <trkpt lat="47.587" lon="6.74819">
        <ele>394</ele>
        <time>2017-12-31T10:12:29.49Z</time>
      </trkpt>
      <trkpt lat="47.58676" lon="6.7481">
        <ele>393</ele>
        <time>2017-12-31T10:12:41.18Z</time>
      </trkpt>
      <trkpt lat="47.58655" lon="6.74807">
        <ele>385</ele>
        <time>2017-12-31T10:12:51.53Z</time>
      </trkpt>
      <trkpt lat="47.58631" lon="6.74833">
        <ele>383</ele>
        <time>2017-12-31T10:13:05.58Z</time>
      </trkpt>
      <trkpt lat="47.5861" lon="6.7483">
        <ele>379</ele>
        <time>2017-12-31T10:13:15.25Z</time>
      </trkpt>
      <trkpt lat="47.58591" lon="6.74821">
        <ele>376</ele>
        <time>2017-12-31T10:13:25.01Z</time>
      </trkpt>
      <trkpt lat="47.58579" lon="6.74797">
        <ele>367</ele>
        <time>2017-12-31T10:13:34.57Z</time>
      </trkpt>
      <trkpt lat="47.58573" lon="6.74786">
        <ele>366</ele>
        <time>2017-12-31T10:13:38.99Z</time>
      </trkpt>
      <trkpt lat="47.58568" lon="6.74766">
        <ele>366</ele>
        <time>2017-12-31T10:13:45.81Z</time>
      </trkpt>
      <trkpt lat="47.58557" lon="6.74755">
        <ele>365</ele>
        <time>2017-12-31T10:13:52.31Z</time>
      </trkpt>
      <trkpt lat="47.58535" lon="6.74746">
        <ele>361</ele>
        <time>2017-12-31T10:14:03.07Z</time>
      </trkpt>
      <trkpt lat="47.58477" lon="6.74775">
        <ele>354</ele>
        <time>2017-12-31T10:14:32.09Z</time>
      </trkpt>
      <trkpt lat="47.58446" lon="6.74819">
        <ele>354</ele>
        <time>2017-12-31T10:14:52.52Z</time>
      </trkpt>
      <trkpt lat="47.58432" lon="6.74827">
        <ele>353</ele>
        <time>2017-12-31T10:14:59.94Z</time>
      </trkpt>
      <trkpt lat="47.58414" lon="6.74855">
        <ele>354</ele>
        <time>2017-12-31T10:15:12.34Z</time>
      </trkpt>
      <trkpt lat="47.58398" lon="6.74841">
        <ele>354</ele>
        <time>2017-12-31T10:15:21.11Z</time>
      </trkpt>
      <trkpt lat="47.58379" lon="6.74803">
        <ele>351</ele>
        <time>2017-12-31T10:15:36.39Z</time>
      </trkpt>
      <trkpt lat="47.58374" lon="6.74752">
        <ele>350</ele>
        <time>2017-12-31T10:15:52.67Z</time>
      </trkpt>
      <trkpt lat="47.58379" lon="6.74723">
        <ele>348</ele>
        <time>2017-12-31T10:16:02.20Z</time>
      </trkpt>
      <trkpt lat="47.58433" lon="6.74532">
        <ele>350</ele>
        <time>2017-12-31T10:17:08.57Z</time>
      </trkpt>
      <trkpt lat="47.58437" lon="6.74504">
        <ele>350</ele>
        <time>2017-12-31T10:17:17.75Z</time>
      </trkpt>
      <trkpt lat="47.58438" lon="6.74442">
        <ele>348</ele>
        <time>2017-12-31T10:17:37.71Z</time>
      </trkpt>
      <trkpt lat="47.58422" lon="6.74381">
        <ele>344</ele>
        <time>2017-12-31T10:17:58.70Z</time>
      </trkpt>
      <trkpt lat="47.58332" lon="6.74158">
        <ele>345</ele>
        <time>2017-12-31T10:19:21.97Z</time>
      </trkpt>
      <trkpt lat="47.58293" lon="6.74054">
        <ele>353</ele>
        <time>2017-12-31T10:20:00.29Z</time>
      </trkpt>
      <trkpt lat="47.5827" lon="6.73947">
        <ele>353</ele>
        <time>2017-12-31T10:20:35.97Z</time>
      </trkpt>
      <trkpt lat="47.58266" lon="6.73875">
        <ele>351</ele>
        <time>2017-12-31T10:20:59.42Z</time>
      </trkpt>
      <trkpt lat="47.58269" lon="6.73803">
        <ele>349</ele>
        <time>2017-12-31T10:21:22.50Z</time>
      </trkpt>
      <trkpt lat="47.58275" lon="6.73757">
        <ele>349</ele>
        <time>2017-12-31T10:21:37.60Z</time>
      </trkpt>
      <trkpt lat="47.58265" lon="6.73734">
        <ele>349</ele>
        <time>2017-12-31T10:21:46.31Z</time>
      </trkpt>
      <trkpt lat="47.58249" lon="6.73721">
        <ele>346</ele>
        <time>2017-12-31T10:21:55.20Z</time>
      </trkpt>
      <trkpt lat="47.58216" lon="6.73714">
        <ele>346</ele>
        <time>2017-12-31T10:22:10.87Z</time>
      </trkpt>
      <trkpt lat="47.58191" lon="6.73693">
        <ele>346</ele>
        <time>2017-12-31T10:22:24.26Z</time>
      </trkpt>
      <trkpt lat="47.58148" lon="6.73639">
        <ele>347</ele>
        <time>2017-12-31T10:22:51.32Z</time>
      </trkpt>
      <trkpt lat="47.5811" lon="6.7361">
        <ele>347</ele>
        <time>2017-12-31T10:23:11.79Z</time>
      </trkpt>
      <trkpt lat="47.58063" lon="6.73587">
        <ele>346</ele>
        <time>2017-12-31T10:23:35.26Z</time>
      </trkpt>
      <trkpt lat="47.58025" lon="6.73584">
        <ele>345</ele>
        <time>2017-12-31T10:23:53.15Z</time>
      </trkpt>
      <trkpt lat="47.57996" lon="6.73573">
        <ele>346</ele>
        <time>2017-12-31T10:24:07.35Z</time>
      </trkpt>
      <trkpt lat="47.57959" lon="6.73578">
        <ele>348</ele>
        <time>2017-12-31T10:24:24.96Z</time>
      </trkpt>
      <trkpt lat="47.57767" lon="6.73658">
        <ele>347</ele>
        <time>2017-12-31T10:25:59.88Z</time>
      </trkpt>
      <trkpt lat="47.57705" lon="6.7369">
        <ele>348</ele>
        <time>2017-12-31T10:26:30.87Z</time>
      </trkpt>
      <trkpt lat="47.57633" lon="6.73671">
        <ele>344</ele>
        <time>2017-12-31T10:27:05.49Z</time>
      </trkpt>
      <trkpt lat="47.57578" lon="6.73637">
        <ele>341</ele>
        <time>2017-12-31T10:27:33.70Z</time>
      </trkpt>
      <trkpt lat="47.57565" lon="6.73621">
        <ele>341</ele>
        <time>2017-12-31T10:27:41.75Z</time>
      </trkpt>
      <trkpt lat="47.57561" lon="6.73618">
        <ele>341</ele>
        <time>2017-12-31T10:27:44Z</time>
      </trkpt>
      <trkpt lat="47.57545" lon="6.7359">
        <ele>340</ele>
        <time>2017-12-31T10:27:49Z</time>
      </trkpt>
      <trkpt lat="47.5753" lon="6.73565">
        <ele>342</ele>
        <time>2017-12-31T10:27:54Z</time>
      </trkpt>
      <trkpt lat="47.57515" lon="6.7354">
        <ele>343</ele>
        <time>2017-12-31T10:27:59Z</time>
      </trkpt>
      <trkpt lat="47.57501" lon="6.7351">
        <ele>344</ele>
        <time>2017-12-31T10:28:05Z</time>
      </trkpt>
      <trkpt lat="47.57487" lon="6.73487">
        <ele>344</ele>
        <time>2017-12-31T10:28:10Z</time>
      </trkpt>
      <trkpt lat="47.57456" lon="6.73469">
        <ele>344</ele>
        <time>2017-12-31T10:28:17Z</time>
      </trkpt>
      <trkpt lat="47.57422" lon="6.73456">
        <ele>344</ele>
        <time>2017-12-31T10:28:25Z</time>
      </trkpt>
      <trkpt lat="47.57388" lon="6.73445">
        <ele>341</ele>
        <time>2017-12-31T10:28:34Z</time>
      </trkpt>
      <trkpt lat="47.57367" lon="6.73431">
        <ele>341</ele>
        <time>2017-12-31T10:28:41Z</time>
      </trkpt>
      <trkpt lat="47.57337" lon="6.73404">
        <ele>343</ele>
        <time>2017-12-31T10:28:48Z</time>
      </trkpt>
      <trkpt lat="47.57312" lon="6.73388">
        <ele>340</ele>
        <time>2017-12-31T10:28:54Z</time>
      </trkpt>
      <trkpt lat="47.57285" lon="6.73379">
        <ele>340</ele>
        <time>2017-12-31T10:29:00Z</time>
      </trkpt>
      <trkpt lat="47.57259" lon="6.7339">
        <ele>339</ele>
        <time>2017-12-31T10:29:05Z</time>
      </trkpt>
      <trkpt lat="47.57239" lon="6.73401">
        <ele>339</ele>
        <time>2017-12-31T10:29:10Z</time>
      </trkpt>
      <trkpt lat="47.57217" lon="6.73417">
        <ele>338</ele>
        <time>2017-12-31T10:29:15Z</time>
      </trkpt>
      <trkpt lat="47.57204" lon="6.73444">
        <ele>338</ele>
        <time>2017-12-31T10:29:20Z</time>
      </trkpt>
      <trkpt lat="47.57187" lon="6.73471">
        <ele>338</ele>
        <time>2017-12-31T10:29:25Z</time>
      </trkpt>
      <trkpt lat="47.57168" lon="6.73493">
        <ele>338</ele>
        <time>2017-12-31T10:29:30Z</time>
      </trkpt>
      <trkpt lat="47.57149" lon="6.73509">
        <ele>339</ele>
        <time>2017-12-31T10:29:35Z</time>
      </trkpt>
      <trkpt lat="47.57129" lon="6.73516">
        <ele>340</ele>
        <time>2017-12-31T10:29:40Z</time>
      </trkpt>
      <trkpt lat="47.5711" lon="6.73525">
        <ele>341</ele>
        <time>2017-12-31T10:29:45Z</time>
      </trkpt>
      <trkpt lat="47.57091" lon="6.7353">
        <ele>341</ele>
        <time>2017-12-31T10:29:51Z</time>
      </trkpt>
      <trkpt lat="47.57074" lon="6.73532">
        <ele>347</ele>
        <time>2017-12-31T10:29:56Z</time>
      </trkpt>
      <trkpt lat="47.57056" lon="6.73534">
        <ele>347</ele>
        <time>2017-12-31T10:30:01Z</time>
      </trkpt>
      <trkpt lat="47.57035" lon="6.73535">
        <ele>349</ele>
        <time>2017-12-31T10:30:06Z</time>
      </trkpt>
      <trkpt lat="47.57019" lon="6.73536">
        <ele>350</ele>
        <time>2017-12-31T10:30:11Z</time>
      </trkpt>
      <trkpt lat="47.57003" lon="6.73542">
        <ele>350</ele>
        <time>2017-12-31T10:30:16Z</time>
      </trkpt>
      <trkpt lat="47.56988" lon="6.73547">
        <ele>355</ele>
        <time>2017-12-31T10:30:21Z</time>
      </trkpt>
      <trkpt lat="47.56973" lon="6.73554">
        <ele>355</ele>
        <time>2017-12-31T10:30:26Z</time>
      </trkpt>
      <trkpt lat="47.56959" lon="6.73565">
        <ele>355</ele>
        <time>2017-12-31T10:30:31Z</time>
      </trkpt>
      <trkpt lat="47.56946" lon="6.73581">
        <ele>354</ele>
        <time>2017-12-31T10:30:36Z</time>
      </trkpt>
      <trkpt lat="47.56937" lon="6.73599">
        <ele>348</ele>
        <time>2017-12-31T10:30:41Z</time>
      </trkpt>
      <trkpt lat="47.56929" lon="6.73624">
        <ele>348</ele>
        <time>2017-12-31T10:30:46Z</time>
      </trkpt>
      <trkpt lat="47.56924" lon="6.73653">
        <ele>348</ele>
        <time>2017-12-31T10:30:51Z</time>
      </trkpt>
      <trkpt lat="47.56918" lon="6.73683">
        <ele>347</ele>
        <time>2017-12-31T10:30:56Z</time>
      </trkpt>
      <trkpt lat="47.56907" lon="6.73718">
        <ele>354</ele>
        <time>2017-12-31T10:31:01Z</time>
      </trkpt>
      <trkpt lat="47.56893" lon="6.73744">
        <ele>354</ele>
        <time>2017-12-31T10:31:06Z</time>
      </trkpt>
      <trkpt lat="47.56883" lon="6.73762">
        <ele>352</ele>
        <time>2017-12-31T10:31:11Z</time>
      </trkpt>
      <trkpt lat="47.56873" lon="6.73783">
        <ele>353</ele>
        <time>2017-12-31T10:31:16Z</time>
      </trkpt>
      <trkpt lat="47.5686" lon="6.738">
        <ele>353</ele>
        <time>2017-12-31T10:31:21Z</time>
      </trkpt>
      <trkpt lat="47.56847" lon="6.73824">
        <ele>354</ele>
        <time>2017-12-31T10:31:27Z</time>
      </trkpt>
      <trkpt lat="47.56834" lon="6.73844">
        <ele>352</ele>
        <time>2017-12-31T10:31:32Z</time>
      </trkpt>
      <trkpt lat="47.5682" lon="6.73867">
        <ele>355</ele>
        <time>2017-12-31T10:31:37Z</time>
      </trkpt>
      <trkpt lat="47.56807" lon="6.73881">
        <ele>355</ele>
        <time>2017-12-31T10:31:42Z</time>
      </trkpt>
      <trkpt lat="47.56793" lon="6.73891">
        <ele>355</ele>
        <time>2017-12-31T10:31:47Z</time>
      </trkpt>
      <trkpt lat="47.56779" lon="6.739">
        <ele>356</ele>
        <time>2017-12-31T10:31:52Z</time>
      </trkpt>
      <trkpt lat="47.56762" lon="6.73908">
        <ele>356</ele>
        <time>2017-12-31T10:31:57Z</time>
      </trkpt>
      <trkpt lat="47.56745" lon="6.73909">
        <ele>359</ele>
        <time>2017-12-31T10:32:02Z</time>
      </trkpt>
      <trkpt lat="47.56728" lon="6.73912">
        <ele>362</ele>
        <time>2017-12-31T10:32:07Z</time>
      </trkpt>
      <trkpt lat="47.56715" lon="6.73917">
        <ele>363</ele>
        <time>2017-12-31T10:32:12Z</time>
      </trkpt>
      <trkpt lat="47.56702" lon="6.73921">
        <ele>354</ele>
        <time>2017-12-31T10:32:17Z</time>
      </trkpt>
      <trkpt lat="47.56687" lon="6.73928">
        <ele>355</ele>
        <time>2017-12-31T10:32:22Z</time>
      </trkpt>
      <trkpt lat="47.56669" lon="6.73935">
        <ele>356</ele>
        <time>2017-12-31T10:32:27Z</time>
      </trkpt>
      <trkpt lat="47.56644" lon="6.7394">
        <ele>356</ele>
        <time>2017-12-31T10:32:32Z</time>
      </trkpt>
      <trkpt lat="47.5662" lon="6.7394">
        <ele>356</ele>
        <time>2017-12-31T10:32:37Z</time>
      </trkpt>
      <trkpt lat="47.56599" lon="6.73938">
        <ele>357</ele>
        <time>2017-12-31T10:32:42Z</time>
      </trkpt>
      <trkpt lat="47.56579" lon="6.73937">
        <ele>358</ele>
        <time>2017-12-31T10:32:47Z</time>
      </trkpt>
      <trkpt lat="47.56562" lon="6.73936">
        <ele>358</ele>
        <time>2017-12-31T10:32:52Z</time>
      </trkpt>
      <trkpt lat="47.5654" lon="6.73939">
        <ele>359</ele>
        <time>2017-12-31T10:32:58Z</time>
      </trkpt>
      <trkpt lat="47.56522" lon="6.7395">
        <ele>359</ele>
        <time>2017-12-31T10:33:04Z</time>
      </trkpt>
      <trkpt lat="47.5649" lon="6.73947">
        <ele>363</ele>
        <time>2017-12-31T10:33:14Z</time>
      </trkpt>
      <trkpt lat="47.5648" lon="6.73937">
        <ele>363</ele>
        <time>2017-12-31T10:33:19Z</time>
      </trkpt>
      <trkpt lat="47.5647" lon="6.73933">
        <ele>363</ele>
        <time>2017-12-31T10:33:24Z</time>
      </trkpt>
      <trkpt lat="47.56458" lon="6.73935">
        <ele>364</ele>
        <time>2017-12-31T10:33:29Z</time>
      </trkpt>
      <trkpt lat="47.56447" lon="6.73938">
        <ele>364</ele>
        <time>2017-12-31T10:33:34Z</time>
      </trkpt>
      <trkpt lat="47.56436" lon="6.73947">
        <ele>365</ele>
        <time>2017-12-31T10:33:39Z</time>
      </trkpt>
      <trkpt lat="47.56427" lon="6.73952">
        <ele>365</ele>
        <time>2017-12-31T10:33:44Z</time>
      </trkpt>
      <trkpt lat="47.56419" lon="6.73953">
        <ele>365</ele>
        <time>2017-12-31T10:33:49Z</time>
      </trkpt>
      <trkpt lat="47.56408" lon="6.73957">
        <ele>371</ele>
        <time>2017-12-31T10:33:55Z</time>
      </trkpt>
      <trkpt lat="47.56403" lon="6.7396">
        <ele>372</ele>
        <time>2017-12-31T10:34:00Z</time>
      </trkpt>
      <trkpt lat="47.56401" lon="6.73973">
        <ele>372</ele>
        <time>2017-12-31T10:34:05Z</time>
      </trkpt>
      <trkpt lat="47.56398" lon="6.73989">
        <ele>372</ele>
        <time>2017-12-31T10:34:13Z</time>
      </trkpt>
      <trkpt lat="47.5639" lon="6.73996">
        <ele>373</ele>
        <time>2017-12-31T10:34:18Z</time>
      </trkpt>
      <trkpt lat="47.56377" lon="6.74005">
        <ele>378</ele>
        <time>2017-12-31T10:34:26Z</time>
      </trkpt>
      <trkpt lat="47.56369" lon="6.74009">
        <ele>378</ele>
        <time>2017-12-31T10:34:31Z</time>
      </trkpt>
      <trkpt lat="47.56361" lon="6.74016">
        <ele>379</ele>
        <time>2017-12-31T10:34:36Z</time>
      </trkpt>
      <trkpt lat="47.56354" lon="6.74024">
        <ele>380</ele>
        <time>2017-12-31T10:34:41Z</time>
      </trkpt>
      <trkpt lat="47.5635" lon="6.74026">
        <ele>380</ele>
        <time>2017-12-31T10:34:46Z</time>
      </trkpt>
      <trkpt lat="47.56335" lon="6.74039">
        <ele>381</ele>
        <time>2017-12-31T10:35:02Z</time>
      </trkpt>
      <trkpt lat="47.56326" lon="6.74049">
        <ele>389</ele>
        <time>2017-12-31T10:35:12Z</time>
      </trkpt>
      <trkpt lat="47.5632" lon="6.74054">
        <ele>390</ele>
        <time>2017-12-31T10:35:17Z</time>
      </trkpt>
      <trkpt lat="47.56315" lon="6.74064">
        <ele>390</ele>
        <time>2017-12-31T10:35:22Z</time>
      </trkpt>
      <trkpt lat="47.5631" lon="6.74071">
        <ele>390</ele>
        <time>2017-12-31T10:35:27Z</time>
      </trkpt>
      <trkpt lat="47.56299" lon="6.74077">
        <ele>391</ele>
        <time>2017-12-31T10:35:37Z</time>
      </trkpt>
      <trkpt lat="47.56295" lon="6.74072">
        <ele>392</ele>
        <time>2017-12-31T10:35:42Z</time>
      </trkpt>
      <trkpt lat="47.5611" lon="6.7421">
        <ele>418</ele>
        <time>2017-12-31T10:39:09Z</time>
      </trkpt>
      <trkpt lat="47.56102" lon="6.74212">
        <ele>418</ele>
        <time>2017-12-31T10:39:14Z</time>
      </trkpt>
      <trkpt lat="47.56092" lon="6.74213">
        <ele>418</ele>
        <time>2017-12-31T10:39:19Z</time>
      </trkpt>
      <trkpt lat="47.56081" lon="6.7422">
        <ele>417</ele>
        <time>2017-12-31T10:39:29Z</time>
      </trkpt>
      <trkpt lat="47.56074" lon="6.74223">
        <ele>417</ele>
        <time>2017-12-31T10:39:34Z</time>
      </trkpt>
      <trkpt lat="47.56067" lon="6.74225">
        <ele>417</ele>
        <time>2017-12-31T10:39:39Z</time>
      </trkpt>
      <trkpt lat="47.5606" lon="6.74226">
        <ele>417</ele>
        <time>2017-12-31T10:39:44Z</time>
      </trkpt>
      <trkpt lat="47.5605" lon="6.74232">
        <ele>417</ele>
        <time>2017-12-31T10:39:49Z</time>
      </trkpt>
      <trkpt lat="47.56043" lon="6.74236">
        <ele>417</ele>
        <time>2017-12-31T10:39:54Z</time>
      </trkpt>
      <trkpt lat="47.56037" lon="6.74241">
        <ele>417</ele>
        <time>2017-12-31T10:39:59Z</time>
      </trkpt>
      <trkpt lat="47.56027" lon="6.74242">
        <ele>418</ele>
        <time>2017-12-31T10:40:04Z</time>
      </trkpt>
      <trkpt lat="47.56017" lon="6.74245">
        <ele>418</ele>
        <time>2017-12-31T10:40:09Z</time>
      </trkpt>
      <trkpt lat="47.56009" lon="6.74248">
        <ele>418</ele>
        <time>2017-12-31T10:40:14Z</time>
      </trkpt>
      <trkpt lat="47.56001" lon="6.74249">
        <ele>419</ele>
        <time>2017-12-31T10:40:19Z</time>
      </trkpt>
      <trkpt lat="47.55988" lon="6.74249">
        <ele>418</ele>
        <time>2017-12-31T10:40:24Z</time>
      </trkpt>
      <trkpt lat="47.55973" lon="6.74249">
        <ele>418</ele>
        <time>2017-12-31T10:40:29Z</time>
      </trkpt>
      <trkpt lat="47.55964" lon="6.74251">
        <ele>419</ele>
        <time>2017-12-31T10:40:34Z</time>
      </trkpt>
      <trkpt lat="47.55953" lon="6.74256">
        <ele>419</ele>
        <time>2017-12-31T10:40:39Z</time>
      </trkpt>
      <trkpt lat="47.5594" lon="6.74259">
        <ele>419</ele>
        <time>2017-12-31T10:40:44Z</time>
      </trkpt>
      <trkpt lat="47.55925" lon="6.74263">
        <ele>419</ele>
        <time>2017-12-31T10:40:49Z</time>
      </trkpt>
      <trkpt lat="47.55912" lon="6.74268">
        <ele>419</ele>
        <time>2017-12-31T10:40:54Z</time>
      </trkpt>
      <trkpt lat="47.55901" lon="6.7427">
        <ele>419</ele>
        <time>2017-12-31T10:40:59Z</time>
      </trkpt>
      <trkpt lat="47.55898" lon="6.74259">
        <ele>419</ele>
        <time>2017-12-31T10:41:04Z</time>
      </trkpt>
      <trkpt lat="47.5589" lon="6.74203">
        <ele>416</ele>
        <time>2017-12-31T10:41:32Z</time>
      </trkpt>
      <trkpt lat="47.55886" lon="6.7418">
        <ele>416</ele>
        <time>2017-12-31T10:41:37Z</time>
      </trkpt>
      <trkpt lat="47.55882" lon="6.74156">
        <ele>413</ele>
        <time>2017-12-31T10:41:42Z</time>
      </trkpt>
      <trkpt lat="47.55878" lon="6.74126">
        <ele>413</ele>
        <time>2017-12-31T10:41:48Z</time>
      </trkpt>
      <trkpt lat="47.55874" lon="6.741">
        <ele>412</ele>
        <time>2017-12-31T10:41:53Z</time>
      </trkpt>
      <trkpt lat="47.5587" lon="6.74075">
        <ele>410</ele>
        <time>2017-12-31T10:41:58Z</time>
      </trkpt>
      <trkpt lat="47.55866" lon="6.74049">
        <ele>410</ele>
        <time>2017-12-31T10:42:03Z</time>
      </trkpt>
      <trkpt lat="47.55861" lon="6.74027">
        <ele>409</ele>
        <time>2017-12-31T10:42:08Z</time>
      </trkpt>
      <trkpt lat="47.55858" lon="6.74002">
        <ele>409</ele>
        <time>2017-12-31T10:42:13Z</time>
      </trkpt>
      <trkpt lat="47.55854" lon="6.73974">
        <ele>406</ele>
        <time>2017-12-31T10:42:18Z</time>
      </trkpt>
      <trkpt lat="47.55848" lon="6.73943">
        <ele>405</ele>
        <time>2017-12-31T10:42:24Z</time>
      </trkpt>
      <trkpt lat="47.55841" lon="6.73906">
        <ele>402</ele>
        <time>2017-12-31T10:42:29Z</time>
      </trkpt>
      <trkpt lat="47.55833" lon="6.73879">
        <ele>402</ele>
        <time>2017-12-31T10:42:37Z</time>
      </trkpt>
      <trkpt lat="47.5582" lon="6.73875">
        <ele>402</ele>
        <time>2017-12-31T10:42:42Z</time>
      </trkpt>
      <trkpt lat="47.55803" lon="6.73874">
        <ele>402</ele>
        <time>2017-12-31T10:42:47Z</time>
      </trkpt>
      <trkpt lat="47.5579" lon="6.73873">
        <ele>402</ele>
        <time>2017-12-31T10:42:52Z</time>
      </trkpt>
      <trkpt lat="47.55774" lon="6.73875">
        <ele>402</ele>
        <time>2017-12-31T10:42:57Z</time>
      </trkpt>
      <trkpt lat="47.55762" lon="6.73881">
        <ele>403</ele>
        <time>2017-12-31T10:43:02Z</time>
      </trkpt>
      <trkpt lat="47.55752" lon="6.7389">
        <ele>403</ele>
        <time>2017-12-31T10:43:07Z</time>
      </trkpt>
      <trkpt lat="47.55742" lon="6.73897">
        <ele>406</ele>
        <time>2017-12-31T10:43:12Z</time>
      </trkpt>
      <trkpt lat="47.55734" lon="6.73903">
        <ele>406</ele>
        <time>2017-12-31T10:43:17Z</time>
      </trkpt>
      <trkpt lat="47.55728" lon="6.73914">
        <ele>406</ele>
        <time>2017-12-31T10:43:22Z</time>
      </trkpt>
      <trkpt lat="47.55724" lon="6.73925">
        <ele>409</ele>
        <time>2017-12-31T10:43:27Z</time>
      </trkpt>
      <trkpt lat="47.55719" lon="6.73932">
        <ele>409</ele>
        <time>2017-12-31T10:43:32Z</time>
      </trkpt>
      <trkpt lat="47.55714" lon="6.73941">
        <ele>410</ele>
        <time>2017-12-31T10:43:37Z</time>
      </trkpt>
      <trkpt lat="47.55709" lon="6.7395">
        <ele>410</ele>
        <time>2017-12-31T10:43:42Z</time>
      </trkpt>
      <trkpt lat="47.55703" lon="6.7396">
        <ele>411</ele>
        <time>2017-12-31T10:43:47Z</time>
      </trkpt>
      <trkpt lat="47.55698" lon="6.73971">
        <ele>411</ele>
        <time>2017-12-31T10:43:52Z</time>
      </trkpt>
      <trkpt lat="47.55691" lon="6.73984">
        <ele>412</ele>
        <time>2017-12-31T10:43:57Z</time>
      </trkpt>
      <trkpt lat="47.55685" lon="6.73992">
        <ele>412</ele>
        <time>2017-12-31T10:44:02Z</time>
      </trkpt>
      <trkpt lat="47.55683" lon="6.74002">
        <ele>414</ele>
        <time>2017-12-31T10:44:07Z</time>
      </trkpt>
      <trkpt lat="47.55679" lon="6.74013">
        <ele>415</ele>
        <time>2017-12-31T10:44:12Z</time>
      </trkpt>
      <trkpt lat="47.55674" lon="6.74026">
        <ele>415</ele>
        <time>2017-12-31T10:44:17Z</time>
      </trkpt>
      <trkpt lat="47.5567" lon="6.74034">
        <ele>415</ele>
        <time>2017-12-31T10:44:22Z</time>
      </trkpt>
      <trkpt lat="47.55667" lon="6.74046">
        <ele>415</ele>
        <time>2017-12-31T10:44:27Z</time>
      </trkpt>
      <trkpt lat="47.55663" lon="6.7406">
        <ele>417</ele>
        <time>2017-12-31T10:44:32Z</time>
      </trkpt>
      <trkpt lat="47.55659" lon="6.74075">
        <ele>417</ele>
        <time>2017-12-31T10:44:37Z</time>
      </trkpt>
      <trkpt lat="47.55653" lon="6.74088">
        <ele>418</ele>
        <time>2017-12-31T10:44:42Z</time>
      </trkpt>
      <trkpt lat="47.55645" lon="6.74109">
        <ele>419</ele>
        <time>2017-12-31T10:44:48Z</time>
      </trkpt>
      <trkpt lat="47.55635" lon="6.7413">
        <ele>419</ele>
        <time>2017-12-31T10:44:57Z</time>
      </trkpt>
      <trkpt lat="47.55628" lon="6.74149">
        <ele>419</ele>
        <time>2017-12-31T10:45:04Z</time>
      </trkpt>
      <trkpt lat="47.55624" lon="6.74162">
        <ele>419</ele>
        <time>2017-12-31T10:45:10Z</time>
      </trkpt>
      <trkpt lat="47.5562" lon="6.74171">
        <ele>420</ele>
        <time>2017-12-31T10:45:16Z</time>
      </trkpt>
      <trkpt lat="47.55627" lon="6.74179">
        <ele>421</ele>
        <time>2017-12-31T10:45:21Z</time>
      </trkpt>
      <trkpt lat="47.55634" lon="6.74179">
        <ele>421</ele>
        <time>2017-12-31T10:45:26Z</time>
      </trkpt>
      <trkpt lat="47.55628" lon="6.74169">
        <ele>421</ele>
        <time>2017-12-31T10:45:31Z</time>
      </trkpt>
      <trkpt lat="47.55618" lon="6.74168">
        <ele>420</ele>
        <time>2017-12-31T10:45:36Z</time>
      </trkpt>
      <trkpt lat="47.5561" lon="6.74172">
        <ele>420</ele>
        <time>2017-12-31T10:45:41Z</time>
      </trkpt>
      <trkpt lat="47.55603" lon="6.74177">
        <ele>420</ele>
        <time>2017-12-31T10:45:46Z</time>
      </trkpt>
      <trkpt lat="47.55595" lon="6.7418">
        <ele>420</ele>
        <time>2017-12-31T10:45:51Z</time>
      </trkpt>
      <trkpt lat="47.55585" lon="6.74184">
        <ele>420</ele>
        <time>2017-12-31T10:45:56Z</time>
      </trkpt>
      <trkpt lat="47.55571" lon="6.74188">
        <ele>420</ele>
        <time>2017-12-31T10:46:02Z</time>
      </trkpt>
      <trkpt lat="47.55557" lon="6.74194">
        <ele>421</ele>
        <time>2017-12-31T10:46:08Z</time>
      </trkpt>
      <trkpt lat="47.55542" lon="6.742">
        <ele>421</ele>
        <time>2017-12-31T10:46:13Z</time>
      </trkpt>
      <trkpt lat="47.55528" lon="6.74205">
        <ele>421</ele>
        <time>2017-12-31T10:46:18Z</time>
      </trkpt>
      <trkpt lat="47.55518" lon="6.74212">
        <ele>422</ele>
        <time>2017-12-31T10:46:23Z</time>
      </trkpt>
      <trkpt lat="47.5551" lon="6.74214">
        <ele>422</ele>
        <time>2017-12-31T10:46:28Z</time>
      </trkpt>
      <trkpt lat="47.55501" lon="6.74222">
        <ele>422</ele>
        <time>2017-12-31T10:46:33Z</time>
      </trkpt>
      <trkpt lat="47.55493" lon="6.74226">
        <ele>424</ele>
        <time>2017-12-31T10:46:38Z</time>
      </trkpt>
      <trkpt lat="47.55486" lon="6.74229">
        <ele>424</ele>
        <time>2017-12-31T10:46:43Z</time>
      </trkpt>
      <trkpt lat="47.55475" lon="6.74232">
        <ele>424</ele>
        <time>2017-12-31T10:46:48Z</time>
      </trkpt>
      <trkpt lat="47.55463" lon="6.74236">
        <ele>425</ele>
        <time>2017-12-31T10:46:53Z</time>
      </trkpt>
      <trkpt lat="47.55453" lon="6.74241">
        <ele>425</ele>
        <time>2017-12-31T10:46:58Z</time>
      </trkpt>
      <trkpt lat="47.55445" lon="6.74244">
        <ele>425</ele>
        <time>2017-12-31T10:47:03Z</time>
      </trkpt>
      <trkpt lat="47.5543" lon="6.7425">
        <ele>425</ele>
        <time>2017-12-31T10:47:08Z</time>
      </trkpt>
      <trkpt lat="47.55417" lon="6.74255">
        <ele>426</ele>
        <time>2017-12-31T10:47:13Z</time>
      </trkpt>
      <trkpt lat="47.55404" lon="6.74261">
        <ele>428</ele>
        <time>2017-12-31T10:47:18Z</time>
      </trkpt>
      <trkpt lat="47.55393" lon="6.74276">
        <ele>429</ele>
        <time>2017-12-31T10:47:23Z</time>
      </trkpt>
      <trkpt lat="47.55364" lon="6.74293">
        <ele>431</ele>
        <time>2017-12-31T10:47:28Z</time>
      </trkpt>
      <trkpt lat="47.55353" lon="6.74299">
        <ele>431</ele>
        <time>2017-12-31T10:47:33Z</time>
      </trkpt>
      <trkpt lat="47.55347" lon="6.74299">
        <ele>432</ele>
        <time>2017-12-31T10:47:38Z</time>
      </trkpt>
      <trkpt lat="47.55339" lon="6.74302">
        <ele>432</ele>
        <time>2017-12-31T10:47:43Z</time>
      </trkpt>
      <trkpt lat="47.55332" lon="6.74307">
        <ele>438</ele>
        <time>2017-12-31T10:47:47Z</time>
      </trkpt>
      <trkpt lat="47.55321" lon="6.74311">
        <ele>438</ele>
        <time>2017-12-31T10:47:52Z</time>
      </trkpt>
      <trkpt lat="47.55316" lon="6.74314">
        <ele>438</ele>
        <time>2017-12-31T10:47:59Z</time>
      </trkpt>
      <trkpt lat="47.55185" lon="6.74434">
        <ele>448</ele>
        <time>2017-12-31T10:51:16Z</time>
      </trkpt>
      <trkpt lat="47.55179" lon="6.74442">
        <ele>448</ele>
        <time>2017-12-31T10:51:21Z</time>
      </trkpt>
      <trkpt lat="47.55175" lon="6.74445">
        <ele>448</ele>
        <time>2017-12-31T10:51:26Z</time>
      </trkpt>
      <trkpt lat="47.5513" lon="6.74481">
        <ele>446</ele>
        <time>2017-12-31T10:51:49Z</time>
      </trkpt>
      <trkpt lat="47.55125" lon="6.74489">
        <ele>446</ele>
        <time>2017-12-31T10:51:54Z</time>
      </trkpt>
      <trkpt lat="47.55112" lon="6.74501">
        <ele>447</ele>
        <time>2017-12-31T10:51:59Z</time>
      </trkpt>
      <trkpt lat="47.55107" lon="6.74507">
        <ele>446</ele>
        <time>2017-12-31T10:52:04Z</time>
      </trkpt>
      <trkpt lat="47.55018" lon="6.74588">
        <ele>449</ele>
        <time>2017-12-31T10:53:28Z</time>
      </trkpt>
      <trkpt lat="47.55013" lon="6.74595">
        <ele>449</ele>
        <time>2017-12-31T10:53:33Z</time>
      </trkpt>
      <trkpt lat="47.55008" lon="6.74599">
        <ele>449</ele>
        <time>2017-12-31T10:53:43Z</time>
      </trkpt>
      <trkpt lat="47.54921" lon="6.74771">
        <ele>450</ele>
        <time>2017-12-31T10:55:17Z</time>
      </trkpt>
      <trkpt lat="47.54898" lon="6.74813">
        <ele>448</ele>
        <time>2017-12-31T10:55:29Z</time>
      </trkpt>
      <trkpt lat="47.5489" lon="6.74825">
        <ele>448</ele>
        <time>2017-12-31T10:55:34Z</time>
      </trkpt>
      <trkpt lat="47.54881" lon="6.7485">
        <ele>446</ele>
        <time>2017-12-31T10:55:39Z</time>
      </trkpt>
      <trkpt lat="47.54873" lon="6.74862">
        <ele>445</ele>
        <time>2017-12-31T10:55:44Z</time>
      </trkpt>
      <trkpt lat="47.54866" lon="6.7488">
        <ele>445</ele>
        <time>2017-12-31T10:55:49Z</time>
      </trkpt>
      <trkpt lat="47.5486" lon="6.74891">
        <ele>445</ele>
        <time>2017-12-31T10:55:54Z</time>
      </trkpt>
      <trkpt lat="47.54851" lon="6.74898">
        <ele>444</ele>
        <time>2017-12-31T10:55:59Z</time>
      </trkpt>
      <trkpt lat="47.5484" lon="6.74909">
        <ele>444</ele>
        <time>2017-12-31T10:56:04Z</time>
      </trkpt>
      <trkpt lat="47.54829" lon="6.74921">
        <ele>443</ele>
        <time>2017-12-31T10:56:09Z</time>
      </trkpt>
      <trkpt lat="47.54823" lon="6.74931">
        <ele>444</ele>
        <time>2017-12-31T10:56:14Z</time>
      </trkpt>
      <trkpt lat="47.54815" lon="6.74943">
        <ele>444</ele>
        <time>2017-12-31T10:56:19Z</time>
      </trkpt>
      <trkpt lat="47.54807" lon="6.74949">
        <ele>445</ele>
        <time>2017-12-31T10:56:24Z</time>
      </trkpt>
      <trkpt lat="47.54796" lon="6.74959">
        <ele>445</ele>
        <time>2017-12-31T10:56:29Z</time>
      </trkpt>
      <trkpt lat="47.54785" lon="6.74969">
        <ele>445</ele>
        <time>2017-12-31T10:56:34Z</time>
      </trkpt>
      <trkpt lat="47.54778" lon="6.74972">
        <ele>446</ele>
        <time>2017-12-31T10:56:39Z</time>
      </trkpt>
      <trkpt lat="47.54769" lon="6.74976">
        <ele>446</ele>
        <time>2017-12-31T10:56:44Z</time>
      </trkpt>
      <trkpt lat="47.54762" lon="6.74982">
        <ele>447</ele>
        <time>2017-12-31T10:56:49Z</time>
      </trkpt>
      <trkpt lat="47.54754" lon="6.74985">
        <ele>447</ele>
        <time>2017-12-31T10:56:54Z</time>
      </trkpt>
      <trkpt lat="47.54711" lon="6.75007">
        <ele>452</ele>
        <time>2017-12-31T10:57:16Z</time>
      </trkpt>
      <trkpt lat="47.54704" lon="6.75014">
        <ele>452</ele>
        <time>2017-12-31T10:57:21Z</time>
      </trkpt>
      <trkpt lat="47.54696" lon="6.75016">
        <ele>452</ele>
        <time>2017-12-31T10:57:26Z</time>
      </trkpt>
      <trkpt lat="47.54689" lon="6.75019">
        <ele>453</ele>
        <time>2017-12-31T10:57:31Z</time>
      </trkpt>
      <trkpt lat="47.54682" lon="6.75021">
        <ele>453</ele>
        <time>2017-12-31T10:57:36Z</time>
      </trkpt>
      <trkpt lat="47.54677" lon="6.75025">
        <ele>453</ele>
        <time>2017-12-31T10:57:41Z</time>
      </trkpt>
      <trkpt lat="47.54646" lon="6.75039">
        <ele>458</ele>
        <time>2017-12-31T10:58:00Z</time>
      </trkpt>
      <trkpt lat="47.54636" lon="6.75043">
        <ele>459</ele>
        <time>2017-12-31T10:58:05Z</time>
      </trkpt>
      <trkpt lat="47.54628" lon="6.75045">
        <ele>459</ele>
        <time>2017-12-31T10:58:10Z</time>
      </trkpt>
      <trkpt lat="47.54619" lon="6.75049">
        <ele>460</ele>
        <time>2017-12-31T10:58:15Z</time>
      </trkpt>
      <trkpt lat="47.5461" lon="6.75051">
        <ele>460</ele>
        <time>2017-12-31T10:58:20Z</time>
      </trkpt>
      <trkpt lat="47.54601" lon="6.75054">
        <ele>460</ele>
        <time>2017-12-31T10:58:25Z</time>
      </trkpt>
      <trkpt lat="47.54594" lon="6.75056">
        <ele>461</ele>
        <time>2017-12-31T10:58:30Z</time>
      </trkpt>
      <trkpt lat="47.54586" lon="6.7506">
        <ele>461</ele>
        <time>2017-12-31T10:58:35Z</time>
      </trkpt>
      <trkpt lat="47.54579" lon="6.75066">
        <ele>465</ele>
        <time>2017-12-31T10:58:40Z</time>
      </trkpt>
      <trkpt lat="47.54575" lon="6.75072">
        <ele>465</ele>
        <time>2017-12-31T10:58:45Z</time>
      </trkpt>
      <trkpt lat="47.54483" lon="6.75152">
        <ele>470</ele>
        <time>2017-12-31T11:00:09Z</time>
      </trkpt>
      <trkpt lat="47.54476" lon="6.75159">
        <ele>470</ele>
        <time>2017-12-31T11:00:15Z</time>
      </trkpt>
      <trkpt lat="47.54465" lon="6.75166">
        <ele>471</ele>
        <time>2017-12-31T11:00:20Z</time>
      </trkpt>
      <trkpt lat="47.54456" lon="6.75171">
        <ele>471</ele>
        <time>2017-12-31T11:00:25Z</time>
      </trkpt>
      <trkpt lat="47.54449" lon="6.75178">
        <ele>471</ele>
        <time>2017-12-31T11:00:30Z</time>
      </trkpt>
      <trkpt lat="47.54439" lon="6.75185">
        <ele>471</ele>
        <time>2017-12-31T11:00:35Z</time>
      </trkpt>
      <trkpt lat="47.54431" lon="6.75192">
        <ele>471</ele>
        <time>2017-12-31T11:00:40Z</time>
      </trkpt>
      <trkpt lat="47.54419" lon="6.75204">
        <ele>471</ele>
        <time>2017-12-31T11:00:45Z</time>
      </trkpt>
      <trkpt lat="47.54404" lon="6.75218">
        <ele>469</ele>
        <time>2017-12-31T11:00:51Z</time>
      </trkpt>
      <trkpt lat="47.54395" lon="6.75226">
        <ele>469</ele>
        <time>2017-12-31T11:00:56Z</time>
      </trkpt>
      <trkpt lat="47.54386" lon="6.75236">
        <ele>469</ele>
        <time>2017-12-31T11:01:01Z</time>
      </trkpt>
      <trkpt lat="47.54376" lon="6.75247">
        <ele>469</ele>
        <time>2017-12-31T11:01:06Z</time>
      </trkpt>
      <trkpt lat="47.54367" lon="6.75257">
        <ele>468</ele>
        <time>2017-12-31T11:01:11Z</time>
      </trkpt>
      <trkpt lat="47.54357" lon="6.75274">
        <ele>468</ele>
        <time>2017-12-31T11:01:18Z</time>
      </trkpt>
      <trkpt lat="47.54345" lon="6.75284">
        <ele>468</ele>
        <time>2017-12-31T11:01:23Z</time>
      </trkpt>
      <trkpt lat="47.54339" lon="6.75299">
        <ele>467</ele>
        <time>2017-12-31T11:01:28Z</time>
      </trkpt>
      <trkpt lat="47.54331" lon="6.7531">
        <ele>465</ele>
        <time>2017-12-31T11:01:33Z</time>
      </trkpt>
      <trkpt lat="47.54321" lon="6.7532">
        <ele>465</ele>
        <time>2017-12-31T11:01:38Z</time>
      </trkpt>
      <trkpt lat="47.54308" lon="6.75344">
        <ele>464</ele>
        <time>2017-12-31T11:01:43Z</time>
      </trkpt>
      <trkpt lat="47.54287" lon="6.75367">
        <ele>462</ele>
        <time>2017-12-31T11:01:48Z</time>
      </trkpt>
      <trkpt lat="47.54279" lon="6.75383">
        <ele>462</ele>
        <time>2017-12-31T11:01:53Z</time>
      </trkpt>
      <trkpt lat="47.54275" lon="6.75397">
        <ele>462</ele>
        <time>2017-12-31T11:01:58Z</time>
      </trkpt>
      <trkpt lat="47.54261" lon="6.7542">
        <ele>460</ele>
        <time>2017-12-31T11:02:03Z</time>
      </trkpt>
      <trkpt lat="47.54252" lon="6.75443">
        <ele>460</ele>
        <time>2017-12-31T11:02:08Z</time>
      </trkpt>
      <trkpt lat="47.54244" lon="6.75471">
        <ele>457</ele>
        <time>2017-12-31T11:02:13Z</time>
      </trkpt>
      <trkpt lat="47.54239" lon="6.75487">
        <ele>457</ele>
        <time>2017-12-31T11:02:18Z</time>
      </trkpt>
      <trkpt lat="47.54225" lon="6.75515">
        <ele>456</ele>
        <time>2017-12-31T11:02:23Z</time>
      </trkpt>
      <trkpt lat="47.54222" lon="6.7552">
        <ele>456</ele>
        <time>2017-12-31T11:02:24Z</time>
      </trkpt>
      <trkpt lat="47.54206" lon="6.75552">
        <ele>455</ele>
        <time>2017-12-31T11:02:28Z</time>
      </trkpt>
      <trkpt lat="47.54197" lon="6.75589">
        <ele>453</ele>
        <time>2017-12-31T11:02:34Z</time>
      </trkpt>
      <trkpt lat="47.54187" lon="6.75614">
        <ele>453</ele>
        <time>2017-12-31T11:02:39Z</time>
      </trkpt>
      <trkpt lat="47.54184" lon="6.75631">
        <ele>453</ele>
        <time>2017-12-31T11:02:44Z</time>
      </trkpt>
      <trkpt lat="47.54168" lon="6.75659">
        <ele>452</ele>
        <time>2017-12-31T11:02:49Z</time>
      </trkpt>
      <trkpt lat="47.5416" lon="6.7571">
        <ele>448</ele>
        <time>2017-12-31T11:02:54Z</time>
      </trkpt>
      <trkpt lat="47.54157" lon="6.75734">
        <ele>448</ele>
        <time>2017-12-31T11:02:59Z</time>
      </trkpt>
      <trkpt lat="47.54146" lon="6.75772">
        <ele>444</ele>
        <time>2017-12-31T11:03:04Z</time>
      </trkpt>
      <trkpt lat="47.54134" lon="6.75798">
        <ele>443</ele>
        <time>2017-12-31T11:03:10Z</time>
      </trkpt>
      <trkpt lat="47.54132" lon="6.75823">
        <ele>442</ele>
        <time>2017-12-31T11:03:15Z</time>
      </trkpt>
      <trkpt lat="47.54129" lon="6.75838">
        <ele>440</ele>
        <time>2017-12-31T11:03:20Z</time>
      </trkpt>
      <trkpt lat="47.54131" lon="6.75863">
        <ele>439</ele>
        <time>2017-12-31T11:03:25Z</time>
      </trkpt>
      <trkpt lat="47.54132" lon="6.75883">
        <ele>439</ele>
        <time>2017-12-31T11:03:30Z</time>
      </trkpt>
      <trkpt lat="47.54129" lon="6.75905">
        <ele>439</ele>
        <time>2017-12-31T11:03:35Z</time>
      </trkpt>
      <trkpt lat="47.54126" lon="6.7592">
        <ele>437</ele>
        <time>2017-12-31T11:03:40Z</time>
      </trkpt>
      <trkpt lat="47.5412" lon="6.75949">
        <ele>437</ele>
        <time>2017-12-31T11:03:45Z</time>
      </trkpt>
      <trkpt lat="47.54116" lon="6.75968">
        <ele>437</ele>
        <time>2017-12-31T11:03:50Z</time>
      </trkpt>
      <trkpt lat="47.5411" lon="6.75989">
        <ele>437</ele>
        <time>2017-12-31T11:03:55Z</time>
      </trkpt>
      <trkpt lat="47.54104" lon="6.76006">
        <ele>436</ele>
        <time>2017-12-31T11:04:00Z</time>
      </trkpt>
      <trkpt lat="47.54103" lon="6.76021">
        <ele>436</ele>
        <time>2017-12-31T11:04:05Z</time>
      </trkpt>
      <trkpt lat="47.54097" lon="6.76038">
        <ele>436</ele>
        <time>2017-12-31T11:04:10Z</time>
      </trkpt>
      <trkpt lat="47.54095" lon="6.76051">
        <ele>436</ele>
        <time>2017-12-31T11:04:16Z</time>
      </trkpt>
      <trkpt lat="47.54099" lon="6.76068">
        <ele>437</ele>
        <time>2017-12-31T11:04:24Z</time>
      </trkpt>
      <trkpt lat="47.54099" lon="6.76079">
        <ele>437</ele>
        <time>2017-12-31T11:04:29Z</time>
      </trkpt>
      <trkpt lat="47.54091" lon="6.76119">
        <ele>437</ele>
        <time>2017-12-31T11:04:40Z</time>
      </trkpt>
      <trkpt lat="47.54089" lon="6.76136">
        <ele>437</ele>
        <time>2017-12-31T11:04:45Z</time>
      </trkpt>
      <trkpt lat="47.54085" lon="6.76153">
        <ele>437</ele>
        <time>2017-12-31T11:04:50Z</time>
      </trkpt>
      <trkpt lat="47.54079" lon="6.76171">
        <ele>437</ele>
        <time>2017-12-31T11:04:55Z</time>
      </trkpt>
      <trkpt lat="47.54074" lon="6.76177">
        <ele>437</ele>
        <time>2017-12-31T11:05:00Z</time>
      </trkpt>
      <trkpt lat="47.54054" lon="6.76263">
        <ele>435</ele>
        <time>2017-12-31T11:05:19Z</time>
      </trkpt>
      <trkpt lat="47.54051" lon="6.76276">
        <ele>435</ele>
        <time>2017-12-31T11:05:25Z</time>
      </trkpt>
      <trkpt lat="47.54038" lon="6.76299">
        <ele>436</ele>
        <time>2017-12-31T11:05:30Z</time>
      </trkpt>
      <trkpt lat="47.5403" lon="6.7632">
        <ele>436</ele>
        <time>2017-12-31T11:05:35Z</time>
      </trkpt>
      <trkpt lat="47.54025" lon="6.76335">
        <ele>436</ele>
        <time>2017-12-31T11:05:40Z</time>
      </trkpt>
      <trkpt lat="47.54015" lon="6.76344">
        <ele>436</ele>
        <time>2017-12-31T11:05:45Z</time>
      </trkpt>
      <trkpt lat="47.5401" lon="6.76359">
        <ele>436</ele>
        <time>2017-12-31T11:05:50Z</time>
      </trkpt>
      <trkpt lat="47.54001" lon="6.76379">
        <ele>436</ele>
        <time>2017-12-31T11:05:55Z</time>
      </trkpt>
      <trkpt lat="47.53991" lon="6.76401">
        <ele>436</ele>
        <time>2017-12-31T11:06:00Z</time>
      </trkpt>
      <trkpt lat="47.5398" lon="6.7642">
        <ele>436</ele>
        <time>2017-12-31T11:06:08Z</time>
      </trkpt>
      <trkpt lat="47.53972" lon="6.76436">
        <ele>435</ele>
        <time>2017-12-31T11:06:13Z</time>
      </trkpt>
      <trkpt lat="47.53963" lon="6.76456">
        <ele>435</ele>
        <time>2017-12-31T11:06:18Z</time>
      </trkpt>
      <trkpt lat="47.53953" lon="6.76468">
        <ele>435</ele>
        <time>2017-12-31T11:06:23Z</time>
      </trkpt>
      <trkpt lat="47.53945" lon="6.76487">
        <ele>435</ele>
        <time>2017-12-31T11:06:28Z</time>
      </trkpt>
      <trkpt lat="47.53939" lon="6.76498">
        <ele>435</ele>
        <time>2017-12-31T11:06:33Z</time>
      </trkpt>
      <trkpt lat="47.5393" lon="6.76514">
        <ele>435</ele>
        <time>2017-12-31T11:06:38Z</time>
      </trkpt>
      <trkpt lat="47.53925" lon="6.7652">
        <ele>435</ele>
        <time>2017-12-31T11:06:43Z</time>
      </trkpt>
      <trkpt lat="47.53916" lon="6.76536">
        <ele>436</ele>
        <time>2017-12-31T11:06:48Z</time>
      </trkpt>
      <trkpt lat="47.53913" lon="6.76544">
        <ele>437</ele>
        <time>2017-12-31T11:06:53Z</time>
      </trkpt>
      <trkpt lat="47.53909" lon="6.7656">
        <ele>437</ele>
        <time>2017-12-31T11:06:58Z</time>
      </trkpt>
      <trkpt lat="47.53902" lon="6.76572">
        <ele>437</ele>
        <time>2017-12-31T11:07:03Z</time>
      </trkpt>
      <trkpt lat="47.53899" lon="6.76578">
        <ele>437</ele>
        <time>2017-12-31T11:07:08Z</time>
      </trkpt>
      <trkpt lat="47.53898" lon="6.76585">
        <ele>436</ele>
        <time>2017-12-31T11:07:13Z</time>
      </trkpt>
      <trkpt lat="47.53867" lon="6.76622">
        <ele>436</ele>
        <time>2017-12-31T11:07:49Z</time>
      </trkpt>
      <trkpt lat="47.53861" lon="6.76634">
        <ele>435</ele>
        <time>2017-12-31T11:07:54Z</time>
      </trkpt>
      <trkpt lat="47.53856" lon="6.7665">
        <ele>435</ele>
        <time>2017-12-31T11:07:59Z</time>
      </trkpt>
      <trkpt lat="47.53848" lon="6.7666">
        <ele>435</ele>
        <time>2017-12-31T11:08:04Z</time>
      </trkpt>
      <trkpt lat="47.53836" lon="6.76667">
        <ele>434</ele>
        <time>2017-12-31T11:08:09Z</time>
      </trkpt>
      <trkpt lat="47.53824" lon="6.76687">
        <ele>432</ele>
        <time>2017-12-31T11:08:14Z</time>
      </trkpt>
      <trkpt lat="47.53816" lon="6.7671">
        <ele>432</ele>
        <time>2017-12-31T11:08:19Z</time>
      </trkpt>
      <trkpt lat="47.53802" lon="6.76746">
        <ele>431</ele>
        <time>2017-12-31T11:08:24Z</time>
      </trkpt>
      <trkpt lat="47.53796" lon="6.76776">
        <ele>428</ele>
        <time>2017-12-31T11:08:29Z</time>
      </trkpt>
      <trkpt lat="47.53793" lon="6.76799">
        <ele>427</ele>
        <time>2017-12-31T11:08:34Z</time>
      </trkpt>
      <trkpt lat="47.5379" lon="6.76833">
        <ele>426</ele>
        <time>2017-12-31T11:08:39Z</time>
      </trkpt>
      <trkpt lat="47.53779" lon="6.76855">
        <ele>424</ele>
        <time>2017-12-31T11:08:44Z</time>
      </trkpt>
      <trkpt lat="47.53766" lon="6.76877">
        <ele>423</ele>
        <time>2017-12-31T11:08:49Z</time>
      </trkpt>
      <trkpt lat="47.53767" lon="6.76905">
        <ele>422</ele>
        <time>2017-12-31T11:08:54Z</time>
      </trkpt>
      <trkpt lat="47.53772" lon="6.76947">
        <ele>421</ele>
        <time>2017-12-31T11:08:59Z</time>
      </trkpt>
      <trkpt lat="47.53775" lon="6.76972">
        <ele>421</ele>
        <time>2017-12-31T11:09:04Z</time>
      </trkpt>
      <trkpt lat="47.53774" lon="6.77044">
        <ele>418</ele>
        <time>2017-12-31T11:09:14Z</time>
      </trkpt>
      <trkpt lat="47.53772" lon="6.77078">
        <ele>417</ele>
        <time>2017-12-31T11:09:19Z</time>
      </trkpt>
      <trkpt lat="47.53766" lon="6.77117">
        <ele>414</ele>
        <time>2017-12-31T11:09:24Z</time>
      </trkpt>
      <trkpt lat="47.53764" lon="6.7716">
        <ele>412</ele>
        <time>2017-12-31T11:09:29Z</time>
      </trkpt>
      <trkpt lat="47.53766" lon="6.77212">
        <ele>408</ele>
        <time>2017-12-31T11:09:34Z</time>
      </trkpt>
      <trkpt lat="47.53751" lon="6.77257">
        <ele>401</ele>
        <time>2017-12-31T11:09:39Z</time>
      </trkpt>
      <trkpt lat="47.53726" lon="6.77306">
        <ele>396</ele>
        <time>2017-12-31T11:09:46Z</time>
      </trkpt>
      <trkpt lat="47.53702" lon="6.77328">
        <ele>395</ele>
        <time>2017-12-31T11:09:51Z</time>
      </trkpt>
      <trkpt lat="47.53684" lon="6.7733">
        <ele>393</ele>
        <time>2017-12-31T11:09:56Z</time>
      </trkpt>
      <trkpt lat="47.53665" lon="6.77319">
        <ele>390</ele>
        <time>2017-12-31T11:10:01Z</time>
      </trkpt>
      <trkpt lat="47.53641" lon="6.773">
        <ele>389</ele>
        <time>2017-12-31T11:10:06Z</time>
      </trkpt>
      <trkpt lat="47.53607" lon="6.77285">
        <ele>388</ele>
        <time>2017-12-31T11:10:11Z</time>
      </trkpt>
      <trkpt lat="47.5357" lon="6.77271">
        <ele>380</ele>
        <time>2017-12-31T11:10:16Z</time>
      </trkpt>
      <trkpt lat="47.53542" lon="6.77261">
        <ele>378</ele>
        <time>2017-12-31T11:10:22Z</time>
      </trkpt>
      <trkpt lat="47.53518" lon="6.77259">
        <ele>375</ele>
        <time>2017-12-31T11:10:27Z</time>
      </trkpt>
      <trkpt lat="47.53487" lon="6.77249">
        <ele>371</ele>
        <time>2017-12-31T11:10:32Z</time>
      </trkpt>
      <trkpt lat="47.5346" lon="6.7724">
        <ele>369</ele>
        <time>2017-12-31T11:10:37Z</time>
      </trkpt>
      <trkpt lat="47.53425" lon="6.77222">
        <ele>367</ele>
        <time>2017-12-31T11:10:42Z</time>
      </trkpt>
      <trkpt lat="47.53403" lon="6.77215">
        <ele>365</ele>
        <time>2017-12-31T11:10:47Z</time>
      </trkpt>
      <trkpt lat="47.53377" lon="6.77215">
        <ele>365</ele>
        <time>2017-12-31T11:10:52Z</time>
      </trkpt>
      <trkpt lat="47.53358" lon="6.77207">
        <ele>365</ele>
        <time>2017-12-31T11:10:57Z</time>
      </trkpt>
      <trkpt lat="47.53347" lon="6.77198">
        <ele>365</ele>
        <time>2017-12-31T11:11:02Z</time>
      </trkpt>
      <trkpt lat="47.53328" lon="6.77203">
        <ele>366</ele>
        <time>2017-12-31T11:11:07Z</time>
      </trkpt>
      <trkpt lat="47.53313" lon="6.77207">
        <ele>367</ele>
        <time>2017-12-31T11:11:12Z</time>
      </trkpt>
      <trkpt lat="47.53291" lon="6.7721">
        <ele>367</ele>
        <time>2017-12-31T11:11:17Z</time>
      </trkpt>
      <trkpt lat="47.53279" lon="6.77218">
        <ele>367</ele>
        <time>2017-12-31T11:11:22Z</time>
      </trkpt>
      <trkpt lat="47.53275" lon="6.77223">
        <ele>367</ele>
        <time>2017-12-31T11:11:27Z</time>
      </trkpt>
      <trkpt lat="47.53256" lon="6.77223">
        <ele>368</ele>
        <time>2017-12-31T11:11:32Z</time>
      </trkpt>
      <trkpt lat="47.53241" lon="6.77217">
        <ele>370</ele>
        <time>2017-12-31T11:11:37Z</time>
      </trkpt>
      <trkpt lat="47.53227" lon="6.77217">
        <ele>370</ele>
        <time>2017-12-31T11:11:42Z</time>
      </trkpt>
      <trkpt lat="47.53216" lon="6.77222">
        <ele>370</ele>
        <time>2017-12-31T11:11:47Z</time>
      </trkpt>
      <trkpt lat="47.53204" lon="6.77227">
        <ele>370</ele>
        <time>2017-12-31T11:11:52Z</time>
      </trkpt>
      <trkpt lat="47.53196" lon="6.77228">
        <ele>370</ele>
        <time>2017-12-31T11:11:57Z</time>
      </trkpt>
      <trkpt lat="47.53177" lon="6.77226">
        <ele>370</ele>
        <time>2017-12-31T11:12:02Z</time>
      </trkpt>
      <trkpt lat="47.53162" lon="6.7722">
        <ele>371</ele>
        <time>2017-12-31T11:12:07Z</time>
      </trkpt>
      <trkpt lat="47.53096" lon="6.7722">
        <ele>370</ele>
        <time>2017-12-31T11:12:32Z</time>
      </trkpt>
      <trkpt lat="47.53073" lon="6.77215">
        <ele>371</ele>
        <time>2017-12-31T11:12:42Z</time>
      </trkpt>
      <trkpt lat="47.5306" lon="6.7722">
        <ele>371</ele>
        <time>2017-12-31T11:12:47Z</time>
      </trkpt>
      <trkpt lat="47.53042" lon="6.77224">
        <ele>371</ele>
        <time>2017-12-31T11:12:52Z</time>
      </trkpt>
      <trkpt lat="47.53032" lon="6.77221">
        <ele>371</ele>
        <time>2017-12-31T11:12:57Z</time>
      </trkpt>
      <trkpt lat="47.5302" lon="6.77221">
        <ele>371</ele>
        <time>2017-12-31T11:13:02Z</time>
      </trkpt>
      <trkpt lat="47.53013" lon="6.7722">
        <ele>372</ele>
        <time>2017-12-31T11:13:07Z</time>
      </trkpt>
      <trkpt lat="47.52993" lon="6.7723">
        <ele>373</ele>
        <time>2017-12-31T11:13:12Z</time>
      </trkpt>
      <trkpt lat="47.52977" lon="6.77234">
        <ele>373</ele>
        <time>2017-12-31T11:13:17Z</time>
      </trkpt>
      <trkpt lat="47.52959" lon="6.77227">
        <ele>373</ele>
        <time>2017-12-31T11:13:22Z</time>
      </trkpt>
      <trkpt lat="47.52945" lon="6.77225">
        <ele>374</ele>
        <time>2017-12-31T11:13:27Z</time>
      </trkpt>
      <trkpt lat="47.52932" lon="6.77224">
        <ele>374</ele>
        <time>2017-12-31T11:13:32Z</time>
      </trkpt>
      <trkpt lat="47.52923" lon="6.77226">
        <ele>374</ele>
        <time>2017-12-31T11:13:37Z</time>
      </trkpt>
      <trkpt lat="47.52917" lon="6.77227">
        <ele>374</ele>
        <time>2017-12-31T11:13:42Z</time>
      </trkpt>
      <trkpt lat="47.52885" lon="6.77225">
        <ele>376</ele>
        <time>2017-12-31T11:13:52Z</time>
      </trkpt>
      <trkpt lat="47.52862" lon="6.77231">
        <ele>377</ele>
        <time>2017-12-31T11:14:06Z</time>
      </trkpt>
      <trkpt lat="47.52849" lon="6.77238">
        <ele>378</ele>
        <time>2017-12-31T11:14:11Z</time>
      </trkpt>
      <trkpt lat="47.52839" lon="6.77241">
        <ele>379</ele>
        <time>2017-12-31T11:14:16Z</time>
      </trkpt>
      <trkpt lat="47.52663" lon="6.77287">
        <ele>388</ele>
        <time>2017-12-31T11:16:03Z</time>
      </trkpt>
      <trkpt lat="47.52655" lon="6.77284">
        <ele>388</ele>
        <time>2017-12-31T11:16:08Z</time>
      </trkpt>
      <trkpt lat="47.52638" lon="6.77292">
        <ele>388</ele>
        <time>2017-12-31T11:16:13Z</time>
      </trkpt>
      <trkpt lat="47.52618" lon="6.77301">
        <ele>387</ele>
        <time>2017-12-31T11:16:18Z</time>
      </trkpt>
      <trkpt lat="47.52592" lon="6.77314">
        <ele>387</ele>
        <time>2017-12-31T11:16:24Z</time>
      </trkpt>
      <trkpt lat="47.52432" lon="6.77411">
        <ele>392</ele>
        <time>2017-12-31T11:17:12Z</time>
      </trkpt>
      <trkpt lat="47.52414" lon="6.77443">
        <ele>392</ele>
        <time>2017-12-31T11:17:29Z</time>
      </trkpt>
      <trkpt lat="47.52372" lon="6.77486">
        <ele>391</ele>
        <time>2017-12-31T11:17:50Z</time>
      </trkpt>
      <trkpt lat="47.52172" lon="6.77624">
        <ele>387</ele>
        <time>2017-12-31T11:18:39Z</time>
      </trkpt>
      <trkpt lat="47.52096" lon="6.77627">
        <ele>391</ele>
        <time>2017-12-31T11:19:23Z</time>
      </trkpt>
      <trkpt lat="47.52097" lon="6.77608">
        <ele>391</ele>
        <time>2017-12-31T11:19:51Z</time>
      </trkpt>
      <trkpt lat="47.52007" lon="6.77538">
        <ele>390</ele>
        <time>2017-12-31T11:19:56Z</time>
      </trkpt>
      <trkpt lat="47.5181" lon="6.77484">
        <ele>388</ele>
        <time>2017-12-31T11:21:59Z</time>
      </trkpt>
    </trkseg>
  </trk>
</gpx>